Observation data for New Home on 06/26/2019      Previous  Date  Next       Current Mesonet Observations  Soil Data  Daily Summary Page  Observations in Plain Language
KNH1 260500Z 08014G19KT 26/17 A3014 RMK A01 T02560170  RH  059%=      5-min Rain = 0
KNH1 260501Z 08014G19KT 26/17 A3014 RMK A01 T02560170  RH  059%=      5-min Rain = 0
KNH1 260502Z 08013KT 26/17 A3014 RMK A01 T02560170  RH  059%=      5-min Rain = 0
KNH1 260503Z 08014KT 26/17 A3014 RMK A01 T02560170  RH  059%=      5-min Rain = 0
KNH1 260504Z 07014G20KT 26/17 A3014 RMK A01 T02560170  RH  059%=      5-min Rain = 0
KNH1 260505Z 07014KT 26/17 A3014 RMK A01 T02560171  RH  059%=      5-min Rain = 0
KNH1 260506Z 08017KT 26/17 A3014 RMK A01 T02560171  RH  059%=      5-min Rain = 0
KNH1 260507Z 07016KT 26/17 A3015 RMK A01 T02560171  RH  059%=      5-min Rain = 0
KNH1 260508Z 07014KT 26/17 A3015 RMK A01 T02560171  RH  059%=      5-min Rain = 0
KNH1 260509Z 08014KT 26/17 A3015 RMK A01 T02560171  RH  060%=      5-min Rain = 0
KNH1 260510Z 08014KT 26/17 A3015 RMK A01 T02550171  RH  060%=      5-min Rain = 0
KNH1 260511Z 08013KT 26/17 A3015 RMK A01 T02550171  RH  060%=      5-min Rain = 0
KNH1 260512Z 07012KT 26/17 A3015 RMK A01 T02550171  RH  060%=      5-min Rain = 0
KNH1 260513Z 07013KT 26/17 A3015 RMK A01 T02550171  RH  060%=      5-min Rain = 0
KNH1 260514Z 07011G16KT 26/17 A3015 RMK A01 T02550172  RH  060%=      5-min Rain = 0
KNH1 260515Z 07014KT 25/17 A3015 RMK A01 T02540172  RH  060%=      5-min Rain = 0
KNH1 260516Z 08012KT 26/17 A3015 RMK A01 T02550172  RH  060%=      5-min Rain = 0
KNH1 260517Z 08015KT 25/17 A3015 RMK A01 T02540172  RH  060%=      5-min Rain = 0
KNH1 260518Z 08012KT 25/17 A3015 RMK A01 T02540172  RH  060%=      5-min Rain = 0
KNH1 260519Z 09012KT 25/17 A3015 RMK A01 T02540172  RH  061%=      5-min Rain = 0
KNH1 260520Z 09012KT 25/17 A3015 RMK A01 T02540172  RH  061%=      5-min Rain = 0
KNH1 260521Z 09012KT 25/17 A3015 RMK A01 T02540173  RH  061%=      5-min Rain = 0
KNH1 260522Z 09012KT 25/17 A3015 RMK A01 T02540173  RH  061%=      5-min Rain = 0
KNH1 260523Z 09014KT 25/17 A3014 RMK A01 T02530172  RH  061%=      5-min Rain = 0
KNH1 260524Z 09013G18KT 25/17 A3014 RMK A01 T02530172  RH  061%=      5-min Rain = 0
KNH1 260525Z 09012G17KT 25/17 A3014 RMK A01 T02530173  RH  061%=      5-min Rain = 0
KNH1 260526Z 09013KT 25/17 A3014 RMK A01 T02530173  RH  061%=      5-min Rain = 0
KNH1 260527Z 08013KT 25/17 A3014 RMK A01 T02530173  RH  061%=      5-min Rain = 0
KNH1 260528Z 10013KT 25/17 A3014 RMK A01 T02520173  RH  061%=      5-min Rain = 0
KNH1 260529Z 09015G20KT 25/17 A3014 RMK A01 T02520173  RH  061%=      5-min Rain = 0
KNH1 260530Z 10011KT 25/17 A3014 RMK A01 T02520173  RH  061%=      5-min Rain = 0
KNH1 260531Z 09011G17KT 25/17 A3014 RMK A01 T02520173  RH  062%=      5-min Rain = 0
KNH1 260532Z 10013KT 25/17 A3014 RMK A01 T02520173  RH  062%=      5-min Rain = 0
KNH1 260533Z 10010G17KT 25/18 A3014 RMK A01 T02510175  RH  063%=      5-min Rain = 0
KNH1 260534Z 11011KT 25/18 A3014 RMK A01 T02500178  RH  064%=      5-min Rain = 0
KNH1 260535Z 10013KT 25/18 A3014 RMK A01 T02470179  RH  066%=      5-min Rain = 0
KNH1 260536Z 10012KT 25/18 A3014 RMK A01 T02450180  RH  067%=      5-min Rain = 0
KNH1 260537Z 11014KT 24/18 A3014 RMK A01 T02440181  RH  068%=      5-min Rain = 0
KNH1 260538Z 11013KT 24/18 A3014 RMK A01 T02410183  RH  070%=      5-min Rain = 0
KNH1 260539Z 11013G19KT 24/18 A3014 RMK A01 T02390183  RH  071%=      5-min Rain = 0
KNH1 260540Z 11014G19KT 24/18 A3013 RMK A01 T02370183  RH  072%=      5-min Rain = 0
KNH1 260541Z 11016G21KT 24/18 A3013 RMK A01 T02360182  RH  072%=      5-min Rain = 0
KNH1 260542Z 11014KT 24/18 A3013 RMK A01 T02350182  RH  072%=      5-min Rain = 0
KNH1 260543Z 11012G17KT 24/18 A3013 RMK A01 T02350181  RH  072%=      5-min Rain = 0
KNH1 260544Z 12012KT 24/18 A3013 RMK A01 T02350180  RH  071%=      5-min Rain = 0
KNH1 260545Z 12012G17KT 24/18 A3013 RMK A01 T02350180  RH  071%=      5-min Rain = 0
KNH1 260546Z 12010KT 24/18 A3013 RMK A01 T02350180  RH  071%=      5-min Rain = 0
KNH1 260547Z 12012KT 24/18 A3013 RMK A01 T02350180  RH  071%=      5-min Rain = 0
KNH1 260548Z 13010G15KT 24/18 A3013 RMK A01 T02360179  RH  070%=      5-min Rain = 0
KNH1 260549Z 11012KT 24/18 A3014 RMK A01 T02360178  RH  070%=      5-min Rain = 0
KNH1 260550Z 11012KT 24/18 A3014 RMK A01 T02360177  RH  069%=      5-min Rain = 0
KNH1 260551Z 11012KT 24/18 A3014 RMK A01 T02370176  RH  069%=      5-min Rain = 0
KNH1 260552Z 11014KT 24/18 A3014 RMK A01 T02370175  RH  068%=      5-min Rain = 0
KNH1 260553Z 11013KT 24/17 A3014 RMK A01 T02380174  RH  067%=      5-min Rain = 0
KNH1 260554Z 12013KT 24/17 A3013 RMK A01 T02380173  RH  067%=      5-min Rain = 0
KNH1 260555Z 12011KT 24/17 A3013 RMK A01 T02380174  RH  067%=      5-min Rain = 0
KNH1 260556Z 12010KT 24/18 A3013 RMK A01 T02380175  RH  068%=      5-min Rain = 0
KNH1 260557Z 12009KT 24/18 A3013 RMK A01 T02370175  RH  068%=      5-min Rain = 0
KNH1 260558Z 12010G15KT 24/18 A3013 RMK A01 T02370175  RH  068%=      5-min Rain = 0
KNH1 260559Z 12011G16KT 24/18 A3013 RMK A01 T02360175  RH  068%=      5-min Rain = 0
KNH1 260600Z 12010KT 24/17 A3013 RMK A01 T02350174  RH  068%=      5-min Rain = 0
KNH1 260601Z 13010KT 24/17 A3013 RMK A01 T02350174  RH  069%=      5-min Rain = 0
KNH1 260602Z 13012KT 24/17 A3013 RMK A01 T02350174  RH  069%=      5-min Rain = 0
KNH1 260603Z 13010KT 24/17 A3013 RMK A01 T02350174  RH  069%=      5-min Rain = 0
KNH1 260604Z 13010KT 23/17 A3013 RMK A01 T02340173  RH  069%=      5-min Rain = 0
KNH1 260605Z 13011KT 23/17 A3013 RMK A01 T02340173  RH  068%=      5-min Rain = 0
KNH1 260606Z 13010G15KT 23/17 A3012 RMK A01 T02340173  RH  069%=      5-min Rain = 0
KNH1 260607Z 12012KT 23/17 A3012 RMK A01 T02330172  RH  069%=      5-min Rain = 0
KNH1 260608Z 13010G16KT 23/17 A3012 RMK A01 T02330172  RH  068%=      5-min Rain = 0
KNH1 260609Z 13011KT 23/17 A3012 RMK A01 T02330171  RH  068%=      5-min Rain = 0
KNH1 260610Z 13010G16KT 23/17 A3012 RMK A01 T02330171  RH  068%=      5-min Rain = 0
KNH1 260611Z 13010KT 23/17 A3012 RMK A01 T02330171  RH  068%=      5-min Rain = 0
KNH1 260612Z 13009KT 23/17 A3012 RMK A01 T02330171  RH  068%=      5-min Rain = 0
KNH1 260613Z 12010KT 23/17 A3012 RMK A01 T02330172  RH  068%=      5-min Rain = 0
KNH1 260614Z 13010KT 23/17 A3012 RMK A01 T02320171  RH  068%=      5-min Rain = 0
KNH1 260615Z 13009KT 23/17 A3012 RMK A01 T02320171  RH  069%=      5-min Rain = 0
KNH1 260616Z 13010G16KT 23/17 A3012 RMK A01 T02320171  RH  069%=      5-min Rain = 0
KNH1 260617Z 12011KT 23/17 A3012 RMK A01 T02320171  RH  069%=      5-min Rain = 0
KNH1 260618Z 13008KT 23/17 A3011 RMK A01 T02320171  RH  069%=      5-min Rain = 0
KNH1 260619Z 13010G15KT 23/17 A3011 RMK A01 T02310171  RH  069%=      5-min Rain = 0
KNH1 260620Z 13009KT 23/17 A3011 RMK A01 T02310170  RH  069%=      5-min Rain = 0
KNH1 260621Z 13009KT 23/17 A3011 RMK A01 T02310171  RH  069%=      5-min Rain = 0
KNH1 260622Z 13010G16KT 23/17 A3011 RMK A01 T02310170  RH  069%=      5-min Rain = 0
KNH1 260623Z 13009KT 23/17 A3011 RMK A01 T02310170  RH  069%=      5-min Rain = 0
KNH1 260624Z 14009KT 23/17 A3011 RMK A01 T02300170  RH  069%=      5-min Rain = 0
KNH1 260625Z 14011KT 23/17 A3011 RMK A01 T02300170  RH  069%=      5-min Rain = 0
KNH1 260626Z 13008KT 23/17 A3011 RMK A01 T02300169  RH  069%=      5-min Rain = 0
KNH1 260627Z 14011KT 23/17 A3011 RMK A01 T02300169  RH  068%=      5-min Rain = 0
KNH1 260628Z 14010G15KT 23/17 A3011 RMK A01 T02310169  RH  068%=      5-min Rain = 0
KNH1 260629Z 13011KT 23/17 A3011 RMK A01 T02310169  RH  068%=      5-min Rain = 0
KNH1 260630Z 14011KT 23/17 A3011 RMK A01 T02310169  RH  068%=      5-min Rain = 0
KNH1 260631Z 14010KT 23/17 A3011 RMK A01 T02310169  RH  068%=      5-min Rain = 0
KNH1 260632Z 14010KT 23/17 A3011 RMK A01 T02310169  RH  068%=      5-min Rain = 0
KNH1 260633Z 15010KT 23/17 A3011 RMK A01 T02310169  RH  068%=      5-min Rain = 0
KNH1 260634Z 14009KT 23/17 A3011 RMK A01 T02310168  RH  068%=      5-min Rain = 0
KNH1 260635Z 15010KT 23/17 A3011 RMK A01 T02310169  RH  068%=      5-min Rain = 0
KNH1 260636Z 15009KT 23/17 A3011 RMK A01 T02310168  RH  068%=      5-min Rain = 0
KNH1 260637Z 15009KT 23/17 A3011 RMK A01 T02310168  RH  068%=      5-min Rain = 0
KNH1 260638Z 15008KT 23/17 A3011 RMK A01 T02310168  RH  068%=      5-min Rain = 0
KNH1 260639Z 14007KT 23/17 A3011 RMK A01 T02320169  RH  068%=      5-min Rain = 0
KNH1 260640Z 15008KT 23/17 A3011 RMK A01 T02310169  RH  068%=      5-min Rain = 0
KNH1 260641Z 15008KT 23/17 A301 RMK A01 T02310168  RH  068%=      5-min Rain = 0
KNH1 260642Z 15009G15KT 23/17 A301 RMK A01 T02300168  RH  068%=      5-min Rain = 0
KNH1 260643Z 15010KT 23/17 A301 RMK A01 T02300167  RH  068%=      5-min Rain = 0
KNH1 260644Z 15009G14KT 23/17 A3011 RMK A01 T02310168  RH  068%=      5-min Rain = 0
KNH1 260645Z 15009KT 23/17 A3011 RMK A01 T02300168  RH  068%=      5-min Rain = 0
KNH1 260646Z 14008KT 23/17 A3011 RMK A01 T02310168  RH  068%=      5-min Rain = 0
KNH1 260647Z 15008G13KT 23/17 A3011 RMK A01 T02310168  RH  068%=      5-min Rain = 0
KNH1 260648Z 14008KT 23/17 A3011 RMK A01 T02300167  RH  068%=      5-min Rain = 0
KNH1 260649Z 14009KT 23/17 A3011 RMK A01 T02310167  RH  068%=      5-min Rain = 0
KNH1 260650Z 14008KT 23/17 A3011 RMK A01 T02310168  RH  068%=      5-min Rain = 0
KNH1 260651Z 14008G13KT 23/17 A3011 RMK A01 T02300167  RH  068%=      5-min Rain = 0
KNH1 260652Z 14007KT 23/17 A3011 RMK A01 T02310167  RH  067%=      5-min Rain = 0
KNH1 260653Z 15008KT 23/17 A3011 RMK A01 T02300167  RH  068%=      5-min Rain = 0
KNH1 260654Z 14007KT 23/17 A3011 RMK A01 T02300167  RH  068%=      5-min Rain = 0
KNH1 260655Z 14007KT 23/17 A3012 RMK A01 T02300167  RH  068%=      5-min Rain = 0
KNH1 260656Z 14007KT 23/17 A3012 RMK A01 T02290167  RH  068%=      5-min Rain = 0
KNH1 260657Z 14006KT 23/17 A3012 RMK A01 T02290167  RH  068%=      5-min Rain = 0
KNH1 260658Z 14006KT 23/17 A3012 RMK A01 T02290167  RH  068%=      5-min Rain = 0
KNH1 260659Z 14009KT 23/17 A3012 RMK A01 T02290167  RH  068%=      5-min Rain = 0
KNH1 260700Z 14007KT 23/17 A3012 RMK A01 T02290166  RH  068%=      5-min Rain = 0
KNH1 260701Z 14008KT 23/17 A3012 RMK A01 T02290167  RH  068%=      5-min Rain = 0
KNH1 260702Z 14008KT 23/17 A3012 RMK A01 T02290167  RH  068%=      5-min Rain = 0
KNH1 260703Z 14008KT 23/17 A3012 RMK A01 T02290166  RH  068%=      5-min Rain = 0
KNH1 260704Z 14007KT 23/17 A3012 RMK A01 T02290167  RH  068%=      5-min Rain = 0
KNH1 260705Z 14007KT 23/17 A3012 RMK A01 T02290167  RH  068%=      5-min Rain = 0
KNH1 260706Z 14005KT 23/17 A3012 RMK A01 T02290167  RH  068%=      5-min Rain = 0
KNH1 260707Z 14006KT 23/17 A3012 RMK A01 T02280167  RH  068%=      5-min Rain = 0
KNH1 260708Z 15007KT 23/17 A3012 RMK A01 T02280167  RH  068%=      5-min Rain = 0
KNH1 260709Z 15006KT 23/17 A3012 RMK A01 T02280167  RH  069%=      5-min Rain = 0
KNH1 260710Z 15006KT 23/17 A3012 RMK A01 T02280167  RH  069%=      5-min Rain = 0
KNH1 260711Z 15005KT 23/17 A3012 RMK A01 T02270167  RH  069%=      5-min Rain = 0
KNH1 260712Z 15007KT 23/17 A3012 RMK A01 T02280167  RH  069%=      5-min Rain = 0
KNH1 260713Z 16008KT 23/17 A3012 RMK A01 T02270167  RH  069%=      5-min Rain = 0
KNH1 260714Z 15008KT 23/17 A3012 RMK A01 T02270167  RH  068%=      5-min Rain = 0
KNH1 260715Z 15007KT 23/17 A3012 RMK A01 T02270166  RH  068%=      5-min Rain = 0
KNH1 260716Z 16008KT 23/17 A3012 RMK A01 T02270166  RH  068%=      5-min Rain = 0
KNH1 260717Z 15008KT 23/17 A3012 RMK A01 T02280167  RH  068%=      5-min Rain = 0
KNH1 260718Z 16009KT 23/17 A3011 RMK A01 T02270166  RH  068%=      5-min Rain = 0
KNH1 260719Z 15009KT 23/17 A3011 RMK A01 T02270166  RH  069%=      5-min Rain = 0
KNH1 260720Z 16009KT 23/17 A3011 RMK A01 T02270167  RH  069%=      5-min Rain = 0
KNH1 260721Z 16009KT 23/17 A3011 RMK A01 T02260166  RH  069%=      5-min Rain = 0
KNH1 260722Z 15009KT 23/17 A301 RMK A01 T02260167  RH  069%=      5-min Rain = 0
KNH1 260723Z 16009G14KT 23/17 A301 RMK A01 T02250167  RH  070%=      5-min Rain = 0
KNH1 260724Z 16009KT 23/17 A301 RMK A01 T02250167  RH  070%=      5-min Rain = 0
KNH1 260725Z 16012KT 23/17 A301 RMK A01 T02250167  RH  070%=      5-min Rain = 0
KNH1 260726Z 16010KT 22/17 A301 RMK A01 T02240167  RH  070%=      5-min Rain = 0
KNH1 260727Z 16010KT 22/17 A301 RMK A01 T02240166  RH  070%=      5-min Rain = 0
KNH1 260728Z 15009KT 22/17 A301 RMK A01 T02240166  RH  070%=      5-min Rain = 0
KNH1 260729Z 16010G15KT 22/17 A3009 RMK A01 T02230167  RH  070%=      5-min Rain = 0
KNH1 260730Z 16011KT 22/17 A3009 RMK A01 T02230166  RH  070%=      5-min Rain = 0
KNH1 260731Z 16011KT 22/17 A3009 RMK A01 T02230166  RH  070%=      5-min Rain = 0
KNH1 260732Z 16013KT 22/17 A3009 RMK A01 T02230166  RH  070%=      5-min Rain = 0
KNH1 260733Z 17012KT 22/17 A3009 RMK A01 T02220166  RH  070%=      5-min Rain = 0
KNH1 260734Z 17012KT 22/17 A3009 RMK A01 T02220166  RH  071%=      5-min Rain = 0
KNH1 260735Z 17013KT 22/17 A3008 RMK A01 T02220166  RH  070%=      5-min Rain = 0
KNH1 260736Z 16014KT 22/17 A3008 RMK A01 T02230166  RH  070%=      5-min Rain = 0
KNH1 260737Z 17014G19KT 22/17 A3008 RMK A01 T02240167  RH  070%=      5-min Rain = 0
KNH1 260738Z 17015KT 22/17 A3008 RMK A01 T02240167  RH  070%=      5-min Rain = 0
KNH1 260739Z 16016KT 22/17 A3008 RMK A01 T02240167  RH  070%=      5-min Rain = 0
KNH1 260740Z 16014G19KT 22/17 A3008 RMK A01 T02240167  RH  070%=      5-min Rain = 0
KNH1 260741Z 17014G19KT 22/17 A3008 RMK A01 T02240167  RH  070%=      5-min Rain = 0
KNH1 260742Z 16015G20KT 22/17 A3007 RMK A01 T02230167  RH  070%=      5-min Rain = 0
KNH1 260743Z 17014G19KT 22/17 A3007 RMK A01 T02230167  RH  071%=      5-min Rain = 0
KNH1 260744Z 16015KT 22/17 A3007 RMK A01 T02220167  RH  071%=      5-min Rain = 0
KNH1 260745Z 17014KT 22/17 A3007 RMK A01 T02220167  RH  071%=      5-min Rain = 0
KNH1 260746Z 17012KT 22/17 A3007 RMK A01 T02220167  RH  071%=      5-min Rain = 0
KNH1 260747Z 17014KT 22/17 A3007 RMK A01 T02220167  RH  071%=      5-min Rain = 0
KNH1 260748Z 17014KT 22/17 A3007 RMK A01 T02220167  RH  071%=      5-min Rain = 0
KNH1 260749Z 17014KT 22/17 A3007 RMK A01 T02220167  RH  071%=      5-min Rain = 0
KNH1 260750Z 17013KT 22/17 A3007 RMK A01 T02220167  RH  071%=      5-min Rain = 0
KNH1 260751Z 17013KT 22/17 A3007 RMK A01 T02220167  RH  071%=      5-min Rain = 0
KNH1 260752Z 17011G16KT 22/17 A3007 RMK A01 T02220167  RH  071%=      5-min Rain = 0
KNH1 260753Z 17012KT 22/17 A3007 RMK A01 T02210168  RH  071%=      5-min Rain = 0
KNH1 260754Z 17010G15KT 22/17 A3007 RMK A01 T02210167  RH  072%=      5-min Rain = 0
KNH1 260755Z 17009KT 22/17 A3007 RMK A01 T02210168  RH  072%=      5-min Rain = 0
KNH1 260756Z 17011KT 22/17 A3007 RMK A01 T02210168  RH  072%=      5-min Rain = 0
KNH1 260757Z 17010G15KT 22/17 A3007 RMK A01 T02200167  RH  072%=      5-min Rain = 0
KNH1 260758Z 16011G16KT 22/17 A3007 RMK A01 T02200167  RH  072%=      5-min Rain = 0
KNH1 260759Z 16010G15KT 22/17 A3007 RMK A01 T02210168  RH  072%=      5-min Rain = 0
KNH1 260800Z 16010G16KT 22/17 A3007 RMK A01 T02210168  RH  072%=      5-min Rain = 0
KNH1 260801Z 17008G13KT 22/17 A3008 RMK A01 T02210168  RH  072%=      5-min Rain = 0
KNH1 260802Z 16007KT 22/17 A3008 RMK A01 T02210168  RH  072%=      5-min Rain = 0
KNH1 260803Z 16006KT 22/17 A3008 RMK A01 T02210168  RH  072%=      5-min Rain = 0
KNH1 260804Z 15006G13KT 22/17 A3008 RMK A01 T02200168  RH  072%=      5-min Rain = 0
KNH1 260805Z 16007G12KT 22/17 A3008 RMK A01 T02200167  RH  072%=      5-min Rain = 0
KNH1 260806Z 15006KT 22/17 A3008 RMK A01 T02200168  RH  072%=      5-min Rain = 0
KNH1 260807Z 14007KT 22/17 A3008 RMK A01 T02200168  RH  072%=      5-min Rain = 0
KNH1 260808Z 14007G12KT 22/17 A3009 RMK A01 T02190167  RH  072%=      5-min Rain = 0
KNH1 260809Z 15006KT 22/17 A3009 RMK A01 T02190168  RH  073%=      5-min Rain = 0
KNH1 260810Z 14008KT 22/17 A3009 RMK A01 T02190168  RH  073%=      5-min Rain = 0
KNH1 260811Z 14007KT 22/17 A3009 RMK A01 T02190168  RH  073%=      5-min Rain = 0
KNH1 260812Z 14008KT 22/17 A3009 RMK A01 T02180168  RH  073%=      5-min Rain = 0
KNH1 260813Z 14007KT 22/17 A3009 RMK A01 T02180167  RH  073%=      5-min Rain = 0
KNH1 260814Z 14007KT 22/17 A3009 RMK A01 T02170167  RH  073%=      5-min Rain = 0
KNH1 260815Z 15007KT 22/17 A3009 RMK A01 T02170168  RH  073%=      5-min Rain = 0
KNH1 260816Z 15006KT 22/17 A3009 RMK A01 T02170168  RH  073%=      5-min Rain = 0
KNH1 260817Z 15006KT 22/17 A3009 RMK A01 T02170167  RH  073%=      5-min Rain = 0
KNH1 260818Z 16008KT 22/17 A3009 RMK A01 T02170167  RH  073%=      5-min Rain = 0
KNH1 260819Z 16007KT 22/17 A3009 RMK A01 T02170167  RH  073%=      5-min Rain = 0
KNH1 260820Z 16007KT 22/17 A3009 RMK A01 T02170168  RH  073%=      5-min Rain = 0
KNH1 260821Z 16006KT 22/17 A3009 RMK A01 T02170167  RH  073%=      5-min Rain = 0
KNH1 260822Z 17007KT 22/17 A3009 RMK A01 T02170167  RH  073%=      5-min Rain = 0
KNH1 260823Z 16009KT 22/17 A3009 RMK A01 T02180168  RH  073%=      5-min Rain = 0
KNH1 260824Z 17009KT 22/17 A3009 RMK A01 T02180167  RH  073%=      5-min Rain = 0
KNH1 260825Z 16008KT 22/17 A3009 RMK A01 T02190167  RH  073%=      5-min Rain = 0
KNH1 260826Z 17007KT 22/17 A3009 RMK A01 T02190167  RH  073%=      5-min Rain = 0
KNH1 260827Z 17007KT 22/17 A3009 RMK A01 T02190167  RH  073%=      5-min Rain = 0
KNH1 260828Z 17008KT 22/17 A3009 RMK A01 T02190168  RH  073%=      5-min Rain = 0
KNH1 260829Z 16008KT 22/17 A3009 RMK A01 T02190168  RH  073%=      5-min Rain = 0
KNH1 260830Z 16008KT 22/17 A3009 RMK A01 T02190167  RH  073%=      5-min Rain = 0
KNH1 260831Z 17008KT 22/17 A3009 RMK A01 T02190168  RH  073%=      5-min Rain = 0
KNH1 260832Z 17008KT 22/17 A3009 RMK A01 T02190168  RH  072%=      5-min Rain = 0
KNH1 260833Z 17007KT 22/17 A3009 RMK A01 T02200168  RH  072%=      5-min Rain = 0
KNH1 260834Z 17006KT 22/17 A3009 RMK A01 T02200168  RH  072%=      5-min Rain = 0
KNH1 260835Z 17008KT 22/17 A3009 RMK A01 T02200168  RH  072%=      5-min Rain = 0
KNH1 260836Z 18008KT 22/17 A3009 RMK A01 T02190168  RH  073%=      5-min Rain = 0
KNH1 260837Z 17008KT 22/17 A3009 RMK A01 T02190168  RH  073%=      5-min Rain = 0
KNH1 260838Z 18007KT 22/17 A3009 RMK A01 T02190168  RH  073%=      5-min Rain = 0
KNH1 260839Z 18010KT 22/17 A3009 RMK A01 T02190168  RH  073%=      5-min Rain = 0
KNH1 260840Z 18010KT 22/17 A3009 RMK A01 T02190168  RH  073%=      5-min Rain = 0
KNH1 260841Z 18009KT 22/17 A3009 RMK A01 T02190168  RH  073%=      5-min Rain = 0
KNH1 260842Z 18009KT 22/17 A3009 RMK A01 T02190168  RH  073%=      5-min Rain = 0
KNH1 260843Z 18009KT 22/17 A3009 RMK A01 T02190168  RH  073%=      5-min Rain = 0
KNH1 260844Z 18009KT 22/17 A3009 RMK A01 T02190168  RH  073%=      5-min Rain = 0
KNH1 260845Z 19011KT 22/17 A3009 RMK A01 T02180168  RH  073%=      5-min Rain = 0
KNH1 260846Z 18010KT 22/17 A3009 RMK A01 T02180168  RH  073%=      5-min Rain = 0
KNH1 260847Z 19011KT 22/17 A3009 RMK A01 T02180168  RH  073%=      5-min Rain = 0
KNH1 260848Z 19011KT 22/17 A3009 RMK A01 T02180168  RH  073%=      5-min Rain = 0
KNH1 260849Z 19010KT 22/17 A3009 RMK A01 T02180168  RH  073%=      5-min Rain = 0
KNH1 260850Z 18009KT 22/17 A3009 RMK A01 T02170168  RH  073%=      5-min Rain = 0
KNH1 260851Z 19009KT 22/17 A3009 RMK A01 T02170168  RH  074%=      5-min Rain = 0
KNH1 260852Z 19010KT 22/17 A3009 RMK A01 T02170168  RH  074%=      5-min Rain = 0
KNH1 260853Z 19011KT 22/17 A3009 RMK A01 T02170168  RH  074%=      5-min Rain = 0
KNH1 260854Z 19012KT 22/17 A3009 RMK A01 T02170168  RH  074%=      5-min Rain = 0
KNH1 260855Z 19011KT 22/17 A3009 RMK A01 T02170168  RH  073%=      5-min Rain = 0
KNH1 260856Z 19010KT 22/17 A3009 RMK A01 T02170168  RH  073%=      5-min Rain = 0
KNH1 260857Z 19012KT 22/17 A3009 RMK A01 T02170167  RH  073%=      5-min Rain = 0
KNH1 260858Z 19012KT 22/17 A3009 RMK A01 T02180168  RH  073%=      5-min Rain = 0
KNH1 260859Z 19011KT 22/17 A3008 RMK A01 T02180168  RH  073%=      5-min Rain = 0
KNH1 260900Z 19012KT 22/17 A3008 RMK A01 T02180168  RH  073%=      5-min Rain = 0
KNH1 260901Z 19011KT 22/17 A3008 RMK A01 T02180168  RH  073%=      5-min Rain = 0
KNH1 260902Z 19012KT 22/17 A3008 RMK A01 T02170168  RH  074%=      5-min Rain = 0
KNH1 260903Z 19011KT 22/17 A3008 RMK A01 T02170168  RH  074%=      5-min Rain = 0
KNH1 260904Z 19011KT 22/17 A3008 RMK A01 T02170168  RH  073%=      5-min Rain = 0
KNH1 260905Z 19010KT 22/17 A3008 RMK A01 T02170168  RH  073%=      5-min Rain = 0
KNH1 260906Z 19011KT 22/17 A3008 RMK A01 T02170168  RH  074%=      5-min Rain = 0
KNH1 260907Z 19012KT 22/17 A3008 RMK A01 T02170168  RH  074%=      5-min Rain = 0
KNH1 260908Z 19011KT 22/17 A3008 RMK A01 T02160168  RH  074%=      5-min Rain = 0
KNH1 260909Z 19012KT 22/17 A3008 RMK A01 T02160168  RH  074%=      5-min Rain = 0
KNH1 260910Z 19012KT 22/17 A3008 RMK A01 T02160168  RH  074%=      5-min Rain = 0
KNH1 260911Z 19012KT 22/17 A3008 RMK A01 T02160168  RH  074%=      5-min Rain = 0
KNH1 260912Z 19011KT 22/17 A3008 RMK A01 T02160168  RH  074%=      5-min Rain = 0
KNH1 260913Z 19011KT 22/17 A3008 RMK A01 T02160168  RH  074%=      5-min Rain = 0
KNH1 260914Z 19011KT 22/17 A3008 RMK A01 T02160168  RH  074%=      5-min Rain = 0
KNH1 260915Z 19010KT 22/17 A3008 RMK A01 T02150168  RH  074%=      5-min Rain = 0
KNH1 260916Z 18012KT 22/17 A3008 RMK A01 T02150168  RH  074%=      5-min Rain = 0
KNH1 260917Z 18011KT 22/17 A3008 RMK A01 T02150168  RH  074%=      5-min Rain = 0
KNH1 260918Z 18011KT 22/17 A3008 RMK A01 T02150168  RH  074%=      5-min Rain = 0
KNH1 260919Z 18010KT 22/17 A3008 RMK A01 T02150168  RH  074%=      5-min Rain = 0
KNH1 260920Z 18009KT 22/17 A3008 RMK A01 T02150168  RH  074%=      5-min Rain = 0
KNH1 260921Z 18011KT 22/17 A3008 RMK A01 T02150168  RH  075%=      5-min Rain = 0
KNH1 260922Z 18011KT 22/17 A3008 RMK A01 T02150168  RH  075%=      5-min Rain = 0
KNH1 260923Z 19011KT 22/17 A3008 RMK A01 T02150168  RH  075%=      5-min Rain = 0
KNH1 260924Z 18010KT 21/17 A3008 RMK A01 T02140168  RH  075%=      5-min Rain = 0
KNH1 260925Z 19011KT 22/17 A3008 RMK A01 T02150168  RH  075%=      5-min Rain = 0
KNH1 260926Z 18009KT 21/17 A3008 RMK A01 T02140168  RH  075%=      5-min Rain = 0
KNH1 260927Z 19010KT 21/17 A3008 RMK A01 T02140168  RH  075%=      5-min Rain = 0
KNH1 260928Z 19009KT 21/17 A3008 RMK A01 T02130168  RH  075%=      5-min Rain = 0
KNH1 260929Z 19011KT 21/17 A3008 RMK A01 T02130168  RH  075%=      5-min Rain = 0
KNH1 260930Z 19010KT 21/17 A3008 RMK A01 T02130168  RH  076%=      5-min Rain = 0
KNH1 260931Z 19011KT 21/17 A3008 RMK A01 T02130168  RH  076%=      5-min Rain = 0
KNH1 260932Z 19010KT 21/17 A3008 RMK A01 T02130168  RH  075%=      5-min Rain = 0
KNH1 260933Z 18010KT 21/17 A3008 RMK A01 T02130168  RH  075%=      5-min Rain = 0
KNH1 260934Z 19010KT 21/17 A3008 RMK A01 T02130168  RH  075%=      5-min Rain = 0
KNH1 260935Z 19009KT 21/17 A3009 RMK A01 T02130168  RH  076%=      5-min Rain = 0
KNH1 260936Z 18009KT 21/17 A3009 RMK A01 T02120168  RH  076%=      5-min Rain = 0
KNH1 260937Z 18008KT 21/17 A3009 RMK A01 T02120168  RH  076%=      5-min Rain = 0
KNH1 260938Z 18008KT 21/17 A3009 RMK A01 T02120168  RH  076%=      5-min Rain = 0
KNH1 260939Z 17008KT 21/17 A3009 RMK A01 T02120168  RH  076%=      5-min Rain = 0
KNH1 260940Z 18008KT 21/17 A3009 RMK A01 T02120168  RH  076%=      5-min Rain = 0
KNH1 260941Z 17007KT 21/17 A3009 RMK A01 T02120168  RH  076%=      5-min Rain = 0
KNH1 260942Z 18007KT 21/17 A3009 RMK A01 T02120168  RH  076%=      5-min Rain = 0
KNH1 260943Z 17007KT 21/17 A3009 RMK A01 T02120168  RH  076%=      5-min Rain = 0
KNH1 260944Z 18006KT 21/17 A3009 RMK A01 T02120168  RH  076%=      5-min Rain = 0
KNH1 260945Z 18007KT 21/17 A3009 RMK A01 T02120168  RH  076%=      5-min Rain = 0
KNH1 260946Z 18007KT 21/17 A3009 RMK A01 T02120168  RH  076%=      5-min Rain = 0
KNH1 260947Z 18007KT 21/17 A3009 RMK A01 T02120168  RH  076%=      5-min Rain = 0
KNH1 260948Z 18008KT 21/17 A3009 RMK A01 T02120168  RH  076%=      5-min Rain = 0
KNH1 260949Z 18008KT 21/17 A3009 RMK A01 T02120168  RH  076%=      5-min Rain = 0
KNH1 260950Z 18009KT 21/17 A3009 RMK A01 T02120168  RH  076%=      5-min Rain = 0
KNH1 260951Z 18009KT 21/17 A3009 RMK A01 T02110168  RH  076%=      5-min Rain = 0
KNH1 260952Z 18009KT 21/17 A3009 RMK A01 T02110167  RH  076%=      5-min Rain = 0
KNH1 260953Z 18008KT 21/17 A3009 RMK A01 T02110167  RH  076%=      5-min Rain = 0
KNH1 260954Z 19009KT 21/17 A3009 RMK A01 T02110168  RH  076%=      5-min Rain = 0
KNH1 260955Z 19008KT 21/17 A3009 RMK A01 T02100167  RH  076%=      5-min Rain = 0
KNH1 260956Z 19009KT 21/17 A3009 RMK A01 T02100167  RH  076%=      5-min Rain = 0
KNH1 260957Z 19010KT 21/17 A3008 RMK A01 T02090167  RH  077%=      5-min Rain = 0
KNH1 260958Z 19010KT 21/17 A3008 RMK A01 T02090167  RH  077%=      5-min Rain = 0
KNH1 260959Z 19010KT 21/17 A3008 RMK A01 T02090167  RH  077%=      5-min Rain = 0
KNH1 261000Z 19010KT 21/17 A3008 RMK A01 T02090167  RH  077%=      5-min Rain = 0
KNH1 261001Z 19011KT 21/17 A3008 RMK A01 T02090167  RH  077%=      5-min Rain = 0
KNH1 261002Z 20011KT 21/17 A3008 RMK A01 T02090167  RH  077%=      5-min Rain = 0
KNH1 261003Z 19011KT 21/17 A3008 RMK A01 T02090167  RH  077%=      5-min Rain = 0
KNH1 261004Z 19010KT 21/17 A3008 RMK A01 T02090167  RH  077%=      5-min Rain = 0
KNH1 261005Z 19011KT 21/17 A3008 RMK A01 T02090167  RH  077%=      5-min Rain = 0
KNH1 261006Z 19011KT 21/17 A3008 RMK A01 T02090167  RH  077%=      5-min Rain = 0
KNH1 261007Z 19012KT 21/17 A3008 RMK A01 T02090167  RH  077%=      5-min Rain = 0
KNH1 261008Z 19010KT 21/17 A3008 RMK A01 T02090167  RH  077%=      5-min Rain = 0
KNH1 261009Z 19011KT 21/17 A3008 RMK A01 T02090167  RH  077%=      5-min Rain = 0
KNH1 261010Z 20010KT 21/17 A3008 RMK A01 T02090167  RH  077%=      5-min Rain = 0
KNH1 261011Z 20011KT 21/17 A3008 RMK A01 T02090167  RH  077%=      5-min Rain = 0
KNH1 261012Z 19010KT 21/17 A3008 RMK A01 T02090167  RH  077%=      5-min Rain = 0
KNH1 261013Z 20012KT 21/17 A3008 RMK A01 T02080167  RH  077%=      5-min Rain = 0
KNH1 261014Z 20010KT 21/17 A3009 RMK A01 T02080167  RH  077%=      5-min Rain = 0
KNH1 261015Z 20011KT 21/17 A3009 RMK A01 T02090167  RH  077%=      5-min Rain = 0
KNH1 261016Z 20009KT 21/17 A3009 RMK A01 T02090167  RH  077%=      5-min Rain = 0
KNH1 261017Z 20010KT 21/17 A3009 RMK A01 T02080167  RH  077%=      5-min Rain = 0
KNH1 261018Z 20008KT 21/17 A3009 RMK A01 T02080167  RH  077%=      5-min Rain = 0
KNH1 261019Z 20009KT 21/17 A3009 RMK A01 T02080167  RH  078%=      5-min Rain = 0
KNH1 261020Z 20009KT 21/17 A3009 RMK A01 T02080168  RH  078%=      5-min Rain = 0
KNH1 261021Z 20010KT 21/17 A3009 RMK A01 T02070167  RH  078%=      5-min Rain = 0
KNH1 261022Z 19009KT 21/17 A3009 RMK A01 T02070167  RH  078%=      5-min Rain = 0
KNH1 261023Z 20009KT 21/17 A3009 RMK A01 T02070168  RH  078%=      5-min Rain = 0
KNH1 261024Z 20010KT 21/17 A3009 RMK A01 T02070168  RH  078%=      5-min Rain = 0
KNH1 261025Z 20010KT 21/17 A3009 RMK A01 T02080168  RH  078%=      5-min Rain = 0
KNH1 261026Z 20009KT 21/17 A3009 RMK A01 T02070168  RH  078%=      5-min Rain = 0
KNH1 261027Z 20009KT 21/17 A3009 RMK A01 T02070168  RH  078%=      5-min Rain = 0
KNH1 261028Z 20009KT 21/17 A3009 RMK A01 T02070168  RH  078%=      5-min Rain = 0
KNH1 261029Z 20009KT 21/17 A3009 RMK A01 T02060168  RH  079%=      5-min Rain = 0
KNH1 261030Z 20010KT 21/17 A3009 RMK A01 T02060168  RH  079%=      5-min Rain = 0
KNH1 261031Z 20011KT 21/17 A3009 RMK A01 T02060168  RH  079%=      5-min Rain = 0
KNH1 261032Z 20010KT 21/17 A3009 RMK A01 T02060168  RH  079%=      5-min Rain = 0
KNH1 261033Z 20010KT 21/17 A3009 RMK A01 T02060168  RH  079%=      5-min Rain = 0
KNH1 261034Z 20010KT 21/17 A3008 RMK A01 T02060168  RH  079%=      5-min Rain = 0
KNH1 261035Z 20010KT 21/17 A3008 RMK A01 T02050168  RH  079%=      5-min Rain = 0
KNH1 261036Z 20011KT 21/17 A3008 RMK A01 T02050168  RH  079%=      5-min Rain = 0
KNH1 261037Z 20010KT 20/17 A3008 RMK A01 T02040168  RH  079%=      5-min Rain = 0
KNH1 261038Z 20011KT 20/17 A3008 RMK A01 T02040168  RH  080%=      5-min Rain = 0
KNH1 261039Z 20010KT 20/17 A3008 RMK A01 T02040168  RH  080%=      5-min Rain = 0
KNH1 261040Z 20010KT 20/17 A3008 RMK A01 T02040168  RH  080%=      5-min Rain = 0
KNH1 261041Z 19010KT 20/17 A3009 RMK A01 T02030168  RH  080%=      5-min Rain = 0
KNH1 261042Z 20010KT 20/17 A3009 RMK A01 T02030168  RH  080%=      5-min Rain = 0
KNH1 261043Z 19009KT 20/17 A3009 RMK A01 T02030168  RH  080%=      5-min Rain = 0
KNH1 261044Z 19009KT 20/17 A3009 RMK A01 T02030168  RH  080%=      5-min Rain = 0
KNH1 261045Z 19010KT 20/17 A3009 RMK A01 T02030168  RH  080%=      5-min Rain = 0
KNH1 261046Z 20008KT 20/17 A3009 RMK A01 T02030168  RH  080%=      5-min Rain = 0
KNH1 261047Z 20008KT 20/17 A3009 RMK A01 T02020168  RH  080%=      5-min Rain = 0
KNH1 261048Z 20008KT 20/17 A3009 RMK A01 T02020168  RH  081%=      5-min Rain = 0
KNH1 261049Z 20008KT 20/17 A3009 RMK A01 T02020168  RH  081%=      5-min Rain = 0
KNH1 261050Z 19007KT 20/17 A3009 RMK A01 T02010167  RH  081%=      5-min Rain = 0
KNH1 261051Z 19008KT 20/17 A3009 RMK A01 T02010167  RH  081%=      5-min Rain = 0
KNH1 261052Z 19008KT 20/17 A3009 RMK A01 T02010168  RH  081%=      5-min Rain = 0
KNH1 261053Z 19008KT 20/17 A3009 RMK A01 T02010168  RH  081%=      5-min Rain = 0
KNH1 261054Z 19008KT 20/17 A3009 RMK A01 T02010168  RH  081%=      5-min Rain = 0
KNH1 261055Z 19008KT 20/17 A3009 RMK A01 T02000167  RH  081%=      5-min Rain = 0
KNH1 261056Z 20008KT 20/17 A3009 RMK A01 T02000167  RH  081%=      5-min Rain = 0
KNH1 261057Z 20008KT 20/17 A3009 RMK A01 T02000167  RH  081%=      5-min Rain = 0
KNH1 261058Z 20008KT 20/17 A3009 RMK A01 T02000167  RH  081%=      5-min Rain = 0
KNH1 261059Z 20008KT 20/17 A3009 RMK A01 T02000167  RH  081%=      5-min Rain = 0
KNH1 261100Z 20008KT 20/17 A3009 RMK A01 T02000167  RH  082%=      5-min Rain = 0
KNH1 261101Z 20009KT 20/17 A301 RMK A01 T02000168  RH  082%=      5-min Rain = 0
KNH1 261102Z 20009KT 20/17 A301 RMK A01 T02000167  RH  082%=      5-min Rain = 0
KNH1 261103Z 20009KT 20/17 A301 RMK A01 T02000168  RH  082%=      5-min Rain = 0
KNH1 261104Z 20009KT 20/17 A301 RMK A01 T02000168  RH  082%=      5-min Rain = 0
KNH1 261105Z 20009KT 20/17 A301 RMK A01 T02000167  RH  082%=      5-min Rain = 0
KNH1 261106Z 20009KT 20/17 A301 RMK A01 T02000168  RH  082%=      5-min Rain = 0
KNH1 261107Z 20009KT 20/17 A301 RMK A01 T02000168  RH  082%=      5-min Rain = 0
KNH1 261108Z 20009KT 20/17 A301 RMK A01 T02000168  RH  082%=      5-min Rain = 0
KNH1 261109Z 20009KT 20/17 A301 RMK A01 T02000168  RH  082%=      5-min Rain = 0
KNH1 261110Z 20009KT 20/17 A301 RMK A01 T02000168  RH  082%=      5-min Rain = 0
KNH1 261111Z 20009KT 20/17 A301 RMK A01 T01990168  RH  082%=      5-min Rain = 0
KNH1 261112Z 20008KT 20/17 A301 RMK A01 T01990168  RH  082%=      5-min Rain = 0
KNH1 261113Z 20009KT 20/17 A301 RMK A01 T01990168  RH  082%=      5-min Rain = 0
KNH1 261114Z 19008KT 20/17 A301 RMK A01 T01990168  RH  082%=      5-min Rain = 0
KNH1 261115Z 20008KT 20/17 A301 RMK A01 T01990168  RH  082%=      5-min Rain = 0
KNH1 261116Z 20008KT 20/17 A301 RMK A01 T01990168  RH  083%=      5-min Rain = 0
KNH1 261117Z 20009KT 20/17 A301 RMK A01 T01980168  RH  083%=      5-min Rain = 0
KNH1 261118Z 20008KT 20/17 A301 RMK A01 T01980168  RH  083%=      5-min Rain = 0
KNH1 261119Z 21008KT 20/17 A301 RMK A01 T01980168  RH  083%=      5-min Rain = 0
KNH1 261120Z 21008KT 20/17 A301 RMK A01 T01980168  RH  083%=      5-min Rain = 0
KNH1 261121Z 21008KT 20/17 A301 RMK A01 T01970168  RH  083%=      5-min Rain = 0
KNH1 261122Z 21009KT 20/17 A301 RMK A01 T01970168  RH  083%=      5-min Rain = 0
KNH1 261123Z 21009KT 20/17 A301 RMK A01 T01970167  RH  083%=      5-min Rain = 0
KNH1 261124Z 21009KT 20/17 A301 RMK A01 T01970168  RH  083%=      5-min Rain = 0
KNH1 261125Z 21009KT 20/17 A301 RMK A01 T01970168  RH  084%=      5-min Rain = 0
KNH1 261126Z 20009KT 20/17 A301 RMK A01 T01970168  RH  083%=      5-min Rain = 0
KNH1 261127Z 20010KT 20/17 A301 RMK A01 T01970168  RH  083%=      5-min Rain = 0
KNH1 261128Z 20011KT 20/17 A301 RMK A01 T01970168  RH  084%=      5-min Rain = 0
KNH1 261129Z 20010KT 20/17 A301 RMK A01 T01970168  RH  084%=      5-min Rain = 0
KNH1 261130Z 20010KT 20/17 A301 RMK A01 T01970169  RH  084%=      5-min Rain = 0
KNH1 261131Z 20010KT 20/17 A301 RMK A01 T01970169  RH  084%=      5-min Rain = 0
KNH1 261132Z 20010KT 20/17 A301 RMK A01 T01970169  RH  084%=      5-min Rain = 0
KNH1 261133Z 20011KT 20/17 A301 RMK A01 T01970169  RH  084%=      5-min Rain = 0
KNH1 261134Z 20009KT 20/17 A301 RMK A01 T01970169  RH  084%=      5-min Rain = 0
KNH1 261135Z 20009KT 20/17 A301 RMK A01 T01970169  RH  084%=      5-min Rain = 0
KNH1 261136Z 20011KT 20/17 A301 RMK A01 T01970169  RH  084%=      5-min Rain = 0
KNH1 261137Z 20010KT 20/17 A301 RMK A01 T01970169  RH  084%=      5-min Rain = 0
KNH1 261138Z 20010KT 20/17 A301 RMK A01 T01970170  RH  084%=      5-min Rain = 0
KNH1 261139Z 20010KT 20/17 A301 RMK A01 T01970170  RH  084%=      5-min Rain = 0
KNH1 261140Z 20010KT 20/17 A301 RMK A01 T01970170  RH  085%=      5-min Rain = 0
KNH1 261141Z 20011KT 20/17 A301 RMK A01 T01970170  RH  085%=      5-min Rain = 0
KNH1 261142Z 20010KT 20/17 A301 RMK A01 T01970170  RH  085%=      5-min Rain = 0
KNH1 261143Z 20010KT 20/17 A301 RMK A01 T01970170  RH  085%=      5-min Rain = 0
KNH1 261144Z 20010KT 20/17 A301 RMK A01 T01970170  RH  085%=      5-min Rain = 0
KNH1 261145Z 20012KT 20/17 A301 RMK A01 T01970171  RH  085%=      5-min Rain = 0
KNH1 261146Z 20010KT 20/17 A301 RMK A01 T01970171  RH  085%=      5-min Rain = 0
KNH1 261147Z 20010KT 20/17 A301 RMK A01 T01980171  RH  085%=      5-min Rain = 0
KNH1 261148Z 20011KT 20/17 A301 RMK A01 T01970171  RH  085%=      5-min Rain = 0
KNH1 261149Z 20011KT 20/17 A301 RMK A01 T01980172  RH  085%=      5-min Rain = 0
KNH1 261150Z 20009KT 20/17 A301 RMK A01 T01980172  RH  085%=      5-min Rain = 0
KNH1 261151Z 20011KT 20/17 A3011 RMK A01 T01980172  RH  085%=      5-min Rain = 0
KNH1 261152Z 20010KT 20/17 A3011 RMK A01 T01980172  RH  085%=      5-min Rain = 0
KNH1 261153Z 20012KT 20/17 A3011 RMK A01 T01980173  RH  085%=      5-min Rain = 0
KNH1 261154Z 20010KT 20/17 A3011 RMK A01 T01980172  RH  085%=      5-min Rain = 0
KNH1 261155Z 21011KT 20/17 A3011 RMK A01 T01980172  RH  085%=      5-min Rain = 0
KNH1 261156Z 21011KT 20/17 A3011 RMK A01 T01980172  RH  085%=      5-min Rain = 0
KNH1 261157Z 21010KT 20/17 A3011 RMK A01 T01980173  RH  085%=      5-min Rain = 0
KNH1 261158Z 21011KT 20/17 A3011 RMK A01 T01980173  RH  085%=      5-min Rain = 0
KNH1 261159Z 20011KT 20/17 A3011 RMK A01 T01980173  RH  085%=      5-min Rain = 0
KNH1 261200Z 21010KT 20/17 A3011 RMK A01 T01980173  RH  085%=      5-min Rain = 0
KNH1 261201Z 21010KT 20/17 A3011 RMK A01 T01980173  RH  085%=      5-min Rain = 0
KNH1 261202Z 20011KT 20/17 A3011 RMK A01 T01990173  RH  085%=      5-min Rain = 0
KNH1 261203Z 21010KT 20/17 A3011 RMK A01 T01990174  RH  085%=      5-min Rain = 0
KNH1 261204Z 21011KT 20/17 A3011 RMK A01 T01980173  RH  085%=      5-min Rain = 0
KNH1 261205Z 20011KT 20/17 A3011 RMK A01 T01990173  RH  085%=      5-min Rain = 0
KNH1 261206Z 21010KT 20/17 A3011 RMK A01 T01990174  RH  085%=      5-min Rain = 0
KNH1 261207Z 21010KT 20/17 A3011 RMK A01 T01990174  RH  085%=      5-min Rain = 0
KNH1 261208Z 20011KT 20/17 A3011 RMK A01 T01990174  RH  085%=      5-min Rain = 0
KNH1 261209Z 20011KT 20/17 A3011 RMK A01 T01990174  RH  085%=      5-min Rain = 0
KNH1 261210Z 21010KT 20/17 A3011 RMK A01 T01990174  RH  085%=      5-min Rain = 0
KNH1 261211Z 20009KT 20/17 A3011 RMK A01 T01990174  RH  085%=      5-min Rain = 0
KNH1 261212Z 20010KT 20/17 A3011 RMK A01 T01990174  RH  085%=      5-min Rain = 0
KNH1 261213Z 20009KT 20/17 A3011 RMK A01 T01990174  RH  085%=      5-min Rain = 0
KNH1 261214Z 20009KT 20/17 A3011 RMK A01 T01990174  RH  085%=      5-min Rain = 0
KNH1 261215Z 20011KT 20/17 A3011 RMK A01 T01990174  RH  086%=      5-min Rain = 0
KNH1 261216Z 20009KT 20/17 A3011 RMK A01 T01990174  RH  085%=      5-min Rain = 0
KNH1 261217Z 20009KT 20/17 A3011 RMK A01 T02000174  RH  085%=      5-min Rain = 0
KNH1 261218Z 20009KT 20/17 A3011 RMK A01 T02000174  RH  085%=      5-min Rain = 0
KNH1 261219Z 20010KT 20/17 A3011 RMK A01 T01990174  RH  085%=      5-min Rain = 0
KNH1 261220Z 20011KT 20/17 A3011 RMK A01 T01990174  RH  085%=      5-min Rain = 0
KNH1 261221Z 20010KT 20/18 A3012 RMK A01 T02000175  RH  085%=      5-min Rain = 0
KNH1 261222Z 20010KT 20/18 A3012 RMK A01 T02000175  RH  085%=      5-min Rain = 0
KNH1 261223Z 20011KT 20/18 A3012 RMK A01 T02000175  RH  085%=      5-min Rain = 0
KNH1 261224Z 19009KT 20/18 A3012 RMK A01 T02010175  RH  085%=      5-min Rain = 0
KNH1 261225Z 19010KT 20/18 A3012 RMK A01 T02000175  RH  085%=      5-min Rain = 0
KNH1 261226Z 19009KT 20/18 A3012 RMK A01 T02010175  RH  085%=      5-min Rain = 0
KNH1 261227Z 19011KT 20/18 A3012 RMK A01 T02010175  RH  085%=      5-min Rain = 0
KNH1 261228Z 19009KT 20/18 A3012 RMK A01 T02020176  RH  085%=      5-min Rain = 0
KNH1 261229Z 18008KT 20/18 A3012 RMK A01 T02020176  RH  085%=      5-min Rain = 0
KNH1 261230Z 18009KT 20/18 A3012 RMK A01 T02020176  RH  085%=      5-min Rain = 0
KNH1 261231Z 19010KT 20/18 A3012 RMK A01 T02030176  RH  085%=      5-min Rain = 0
KNH1 261232Z 19010KT 20/18 A3012 RMK A01 T02030177  RH  085%=      5-min Rain = 0
KNH1 261233Z 19009KT 20/18 A3013 RMK A01 T02030176  RH  085%=      5-min Rain = 0
KNH1 261234Z 19009KT 20/18 A3013 RMK A01 T02030176  RH  084%=      5-min Rain = 0
KNH1 261235Z 19009KT 20/18 A3013 RMK A01 T02040177  RH  084%=      5-min Rain = 0
KNH1 261236Z 19009KT 20/18 A3013 RMK A01 T02040177  RH  084%=      5-min Rain = 0
KNH1 261237Z 19009KT 20/18 A3013 RMK A01 T02040177  RH  084%=      5-min Rain = 0
KNH1 261238Z 19009KT 21/18 A3013 RMK A01 T02050177  RH  084%=      5-min Rain = 0
KNH1 261239Z 19012KT 21/18 A3013 RMK A01 T02050177  RH  084%=      5-min Rain = 0
KNH1 261240Z 20010KT 21/18 A3013 RMK A01 T02050177  RH  084%=      5-min Rain = 0
KNH1 261241Z 19010KT 21/18 A3013 RMK A01 T02050177  RH  084%=      5-min Rain = 0
KNH1 261242Z 20009KT 21/18 A3012 RMK A01 T02050177  RH  084%=      5-min Rain = 0
KNH1 261243Z 20010KT 21/18 A3012 RMK A01 T02060178  RH  084%=      5-min Rain = 0
KNH1 261244Z 20009KT 21/18 A3012 RMK A01 T02060177  RH  084%=      5-min Rain = 0
KNH1 261245Z 20011KT 21/18 A3012 RMK A01 T02060178  RH  084%=      5-min Rain = 0
KNH1 261246Z 20010KT 21/18 A3012 RMK A01 T02070178  RH  083%=      5-min Rain = 0
KNH1 261247Z 20012KT 21/18 A3012 RMK A01 T02070178  RH  083%=      5-min Rain = 0
KNH1 261248Z 20010KT 21/18 A3012 RMK A01 T02070178  RH  083%=      5-min Rain = 0
KNH1 261249Z 20010KT 21/18 A3012 RMK A01 T02070178  RH  083%=      5-min Rain = 0
KNH1 261250Z 20012KT 21/18 A3013 RMK A01 T02070178  RH  083%=      5-min Rain = 0
KNH1 261251Z 20011KT 21/18 A3013 RMK A01 T02080178  RH  083%=      5-min Rain = 0
KNH1 261252Z 20011KT 21/18 A3013 RMK A01 T02080178  RH  083%=      5-min Rain = 0
KNH1 261253Z 20010KT 21/18 A3013 RMK A01 T02080179  RH  083%=      5-min Rain = 0
KNH1 261254Z 19010KT 21/18 A3013 RMK A01 T02090179  RH  083%=      5-min Rain = 0
KNH1 261255Z 19012KT 21/18 A3013 RMK A01 T02090179  RH  083%=      5-min Rain = 0
KNH1 261256Z 20011KT 21/18 A3013 RMK A01 T02100179  RH  083%=      5-min Rain = 0
KNH1 261257Z 19011KT 21/18 A3013 RMK A01 T02100179  RH  082%=      5-min Rain = 0
KNH1 261258Z 20011KT 21/18 A3013 RMK A01 T02100179  RH  082%=      5-min Rain = 0
KNH1 261259Z 20011KT 21/18 A3013 RMK A01 T02110179  RH  082%=      5-min Rain = 0
KNH1 261300Z 21011KT 21/18 A3013 RMK A01 T02110180  RH  082%=      5-min Rain = 0
KNH1 261301Z 21011KT 21/18 A3013 RMK A01 T02120180  RH  082%=      5-min Rain = 0
KNH1 261302Z 20011KT 21/18 A3013 RMK A01 T02110179  RH  082%=      5-min Rain = 0
KNH1 261303Z 20012KT 21/18 A3013 RMK A01 T02120180  RH  082%=      5-min Rain = 0
KNH1 261304Z 21013KT 21/18 A3013 RMK A01 T02120180  RH  082%=      5-min Rain = 0
KNH1 261305Z 21014KT 21/18 A3013 RMK A01 T02120180  RH  082%=      5-min Rain = 0
KNH1 261306Z 20012KT 21/18 A3013 RMK A01 T02120180  RH  082%=      5-min Rain = 0
KNH1 261307Z 21011KT 21/18 A3013 RMK A01 T02130181  RH  082%=      5-min Rain = 0
KNH1 261308Z 20009KT 21/18 A3013 RMK A01 T02140181  RH  081%=      5-min Rain = 0
KNH1 261309Z 20010KT 22/18 A3013 RMK A01 T02150181  RH  081%=      5-min Rain = 0
KNH1 261310Z 20010KT 22/18 A3013 RMK A01 T02150181  RH  081%=      5-min Rain = 0
KNH1 261311Z 19010KT 22/18 A3013 RMK A01 T02160181  RH  080%=      5-min Rain = 0
KNH1 261312Z 20011KT 22/18 A3013 RMK A01 T02160180  RH  080%=      5-min Rain = 0
KNH1 261313Z 20013KT 22/18 A3014 RMK A01 T02170180  RH  080%=      5-min Rain = 0
KNH1 261314Z 20013KT 22/18 A3014 RMK A01 T02170180  RH  080%=      5-min Rain = 0
KNH1 261315Z 20011KT 22/18 A3014 RMK A01 T02160180  RH  080%=      5-min Rain = 0
KNH1 261316Z 20011KT 22/18 A3014 RMK A01 T02170180  RH  080%=      5-min Rain = 0
KNH1 261317Z 19011KT 22/18 A3014 RMK A01 T02170181  RH  080%=      5-min Rain = 0
KNH1 261318Z 19012KT 22/18 A3014 RMK A01 T02180182  RH  080%=      5-min Rain = 0
KNH1 261319Z 19013KT 22/18 A3014 RMK A01 T02190181  RH  079%=      5-min Rain = 0
KNH1 261320Z 19012KT 22/18 A3014 RMK A01 T02190182  RH  079%=      5-min Rain = 0
KNH1 261321Z 19011KT 22/18 A3014 RMK A01 T02180182  RH  080%=      5-min Rain = 0
KNH1 261322Z 19011KT 22/18 A3014 RMK A01 T02190182  RH  079%=      5-min Rain = 0
KNH1 261323Z 19011KT 22/18 A3014 RMK A01 T02190182  RH  079%=      5-min Rain = 0
KNH1 261324Z 19014KT 22/18 A3014 RMK A01 T02200181  RH  079%=      5-min Rain = 0
KNH1 261325Z 20014KT 22/18 A3014 RMK A01 T02200181  RH  078%=      5-min Rain = 0
KNH1 261326Z 19013KT 22/18 A3014 RMK A01 T02200181  RH  079%=      5-min Rain = 0
KNH1 261327Z 20014KT 22/18 A3014 RMK A01 T02210181  RH  078%=      5-min Rain = 0
KNH1 261328Z 19014KT 22/18 A3014 RMK A01 T02210181  RH  078%=      5-min Rain = 0
KNH1 261329Z 19015KT 22/18 A3014 RMK A01 T02210181  RH  078%=      5-min Rain = 0
KNH1 261330Z 19015KT 22/18 A3014 RMK A01 T02210182  RH  078%=      5-min Rain = 0
KNH1 261331Z 19014KT 22/18 A3014 RMK A01 T02220182  RH  078%=      5-min Rain = 0
KNH1 261332Z 19012KT 22/18 A3014 RMK A01 T02220182  RH  078%=      5-min Rain = 0
KNH1 261333Z 20014KT 22/18 A3014 RMK A01 T02230182  RH  078%=      5-min Rain = 0
KNH1 261334Z 19016KT 22/18 A3014 RMK A01 T02230182  RH  077%=      5-min Rain = 0
KNH1 261335Z 20016KT 22/18 A3014 RMK A01 T02230182  RH  077%=      5-min Rain = 0
KNH1 261336Z 20013KT 22/18 A3014 RMK A01 T02230182  RH  077%=      5-min Rain = 0
KNH1 261337Z 20012KT 22/18 A3014 RMK A01 T02240183  RH  078%=      5-min Rain = 0
KNH1 261338Z 20014KT 23/18 A3014 RMK A01 T02250183  RH  077%=      5-min Rain = 0
KNH1 261339Z 20014KT 23/18 A3015 RMK A01 T02250183  RH  077%=      5-min Rain = 0
KNH1 261340Z 20013KT 23/18 A3015 RMK A01 T02250182  RH  077%=      5-min Rain = 0
KNH1 261341Z 19013KT 23/18 A3015 RMK A01 T02260183  RH  077%=      5-min Rain = 0
KNH1 261342Z 20014KT 23/18 A3015 RMK A01 T02260183  RH  076%=      5-min Rain = 0
KNH1 261343Z 20014KT 23/18 A3015 RMK A01 T02270182  RH  076%=      5-min Rain = 0
KNH1 261344Z 20014KT 23/18 A3015 RMK A01 T02270183  RH  076%=      5-min Rain = 0
KNH1 261345Z 20014KT 23/18 A3015 RMK A01 T02270183  RH  076%=      5-min Rain = 0
KNH1 261346Z 19015KT 23/18 A3015 RMK A01 T02270183  RH  076%=      5-min Rain = 0
KNH1 261347Z 19013KT 23/18 A3015 RMK A01 T02270183  RH  076%=      5-min Rain = 0
KNH1 261348Z 19015KT 23/18 A3015 RMK A01 T02280183  RH  076%=      5-min Rain = 0
KNH1 261349Z 19017KT 23/18 A3015 RMK A01 T02290183  RH  075%=      5-min Rain = 0
KNH1 261350Z 20017KT 23/18 A3015 RMK A01 T02290183  RH  075%=      5-min Rain = 0
KNH1 261351Z 20016KT 23/18 A3015 RMK A01 T02280182  RH  075%=      5-min Rain = 0
KNH1 261352Z 20015KT 23/18 A3015 RMK A01 T02280183  RH  075%=      5-min Rain = 0
KNH1 261353Z 20016KT 23/18 A3015 RMK A01 T02280183  RH  075%=      5-min Rain = 0
KNH1 261354Z 20014KT 23/18 A3015 RMK A01 T02290183  RH  075%=      5-min Rain = 0
KNH1 261355Z 20014KT 23/18 A3015 RMK A01 T02300184  RH  075%=      5-min Rain = 0
KNH1 261356Z 19013KT 23/18 A3015 RMK A01 T02320184  RH  075%=      5-min Rain = 0
KNH1 261357Z 19014KT 23/18 A3015 RMK A01 T02320184  RH  074%=      5-min Rain = 0
KNH1 261358Z 19013KT 23/18 A3015 RMK A01 T02320184  RH  074%=      5-min Rain = 0
KNH1 261359Z 20012KT 23/19 A3015 RMK A01 T02330185  RH  074%=      5-min Rain = 0
KNH1 261400Z 19013KT 23/18 A3015 RMK A01 T02340184  RH  073%=      5-min Rain = 0
KNH1 261401Z 19014KT 23/18 A3015 RMK A01 T02330184  RH  074%=      5-min Rain = 0
KNH1 261402Z 19012KT 23/18 A3016 RMK A01 T02320184  RH  074%=      5-min Rain = 0
KNH1 261403Z 18012KT 23/18 A3015 RMK A01 T02340184  RH  074%=      5-min Rain = 0
KNH1 261404Z 19014KT 23/18 A3015 RMK A01 T02340184  RH  073%=      5-min Rain = 0
KNH1 261405Z 19013KT 23/18 A3015 RMK A01 T02340183  RH  073%=      5-min Rain = 0
KNH1 261406Z 19013KT 23/18 A3015 RMK A01 T02330183  RH  073%=      5-min Rain = 0
KNH1 261407Z 19013KT 23/18 A3015 RMK A01 T02340183  RH  073%=      5-min Rain = 0
KNH1 261408Z 20013KT 23/18 A3015 RMK A01 T02340183  RH  073%=      5-min Rain = 0
KNH1 261409Z 20013KT 24/18 A3015 RMK A01 T02350183  RH  072%=      5-min Rain = 0
KNH1 261410Z 19012KT 24/18 A3015 RMK A01 T02350183  RH  073%=      5-min Rain = 0
KNH1 261411Z 19011KT 24/18 A3015 RMK A01 T02360184  RH  072%=      5-min Rain = 0
KNH1 261412Z 20013KT 24/18 A3015 RMK A01 T02360184  RH  072%=      5-min Rain = 0
KNH1 261413Z 19014KT 24/18 A3015 RMK A01 T02370183  RH  072%=      5-min Rain = 0
KNH1 261414Z 20013KT 24/18 A3015 RMK A01 T02380183  RH  071%=      5-min Rain = 0
KNH1 261415Z 20012KT 24/18 A3015 RMK A01 T02390183  RH  071%=      5-min Rain = 0
KNH1 261416Z 19011G17KT 24/18 A3015 RMK A01 T02400184  RH  071%=      5-min Rain = 0
KNH1 261417Z 19016KT 24/18 A3015 RMK A01 T02420183  RH  070%=      5-min Rain = 0
KNH1 261418Z 19015KT 24/18 A3015 RMK A01 T02420183  RH  069%=      5-min Rain = 0
KNH1 261419Z 19015KT 24/18 A3015 RMK A01 T02410182  RH  070%=      5-min Rain = 0
KNH1 261420Z 20015KT 24/18 A3015 RMK A01 T02400182  RH  070%=      5-min Rain = 0
KNH1 261421Z 20014KT 24/18 A3015 RMK A01 T02400182  RH  070%=      5-min Rain = 0
KNH1 261422Z 20013KT 24/18 A3015 RMK A01 T02390182  RH  070%=      5-min Rain = 0
KNH1 261423Z 20012KT 24/18 A3016 RMK A01 T02390183  RH  071%=      5-min Rain = 0
KNH1 261424Z 20011KT 24/18 A3016 RMK A01 T02410183  RH  070%=      5-min Rain = 0
KNH1 261425Z 19013KT 24/18 A3016 RMK A01 T02430183  RH  069%=      5-min Rain = 0
KNH1 261426Z 20012KT 24/18 A3015 RMK A01 T02430183  RH  069%=      5-min Rain = 0
KNH1 261427Z 20011KT 24/18 A3016 RMK A01 T02430183  RH  069%=      5-min Rain = 0
KNH1 261428Z 19013KT 24/18 A3016 RMK A01 T02440183  RH  069%=      5-min Rain = 0
KNH1 261429Z 19013KT 25/18 A3016 RMK A01 T02450182  RH  068%=      5-min Rain = 0
KNH1 261430Z 19013KT 24/18 A3016 RMK A01 T02440181  RH  068%=      5-min Rain = 0
KNH1 261431Z 19012KT 24/18 A3016 RMK A01 T02440181  RH  068%=      5-min Rain = 0
KNH1 261432Z 20010KT 24/18 A3016 RMK A01 T02440183  RH  068%=      5-min Rain = 0
KNH1 261433Z 20013KT 25/18 A3016 RMK A01 T02460184  RH  068%=      5-min Rain = 0
KNH1 261434Z 20013KT 25/18 A3016 RMK A01 T02470183  RH  067%=      5-min Rain = 0
KNH1 261435Z 21013KT 25/18 A3016 RMK A01 T02470182  RH  067%=      5-min Rain = 0
KNH1 261436Z 20012KT 25/18 A3016 RMK A01 T02460182  RH  067%=      5-min Rain = 0
KNH1 261437Z 20012KT 25/18 A3016 RMK A01 T02460182  RH  067%=      5-min Rain = 0
KNH1 261438Z 20012KT 25/18 A3016 RMK A01 T02470183  RH  067%=      5-min Rain = 0
KNH1 261439Z 19012KT 25/18 A3016 RMK A01 T02470182  RH  067%=      5-min Rain = 0
KNH1 261440Z 20012KT 25/18 A3016 RMK A01 T02480183  RH  067%=      5-min Rain = 0
KNH1 261441Z 19012KT 25/18 A3016 RMK A01 T02480182  RH  067%=      5-min Rain = 0
KNH1 261442Z 19011KT 25/18 A3016 RMK A01 T02480182  RH  067%=      5-min Rain = 0
KNH1 261443Z 20009KT 25/18 A3016 RMK A01 T02490182  RH  067%=      5-min Rain = 0
KNH1 261444Z 18010G15KT 25/18 A3016 RMK A01 T02490184  RH  067%=      5-min Rain = 0
KNH1 261445Z 19014KT 25/18 A3016 RMK A01 T02520182  RH  065%=      5-min Rain = 0
KNH1 261446Z 19013KT 25/18 A3016 RMK A01 T02520180  RH  064%=      5-min Rain = 0
KNH1 261447Z 19013KT 25/18 A3015 RMK A01 T02530181  RH  064%=      5-min Rain = 0
KNH1 261448Z 19014KT 25/18 A3016 RMK A01 T02540181  RH  064%=      5-min Rain = 0
KNH1 261449Z 20012KT 25/18 A3016 RMK A01 T02530181  RH  064%=      5-min Rain = 0
KNH1 261450Z 20012KT 25/18 A3016 RMK A01 T02530181  RH  064%=      5-min Rain = 0
KNH1 261451Z 20014KT 25/18 A3015 RMK A01 T02540180  RH  064%=      5-min Rain = 0
KNH1 261452Z 19013KT 25/18 A3016 RMK A01 T02540180  RH  064%=      5-min Rain = 0
KNH1 261453Z 21013KT 26/18 A3016 RMK A01 T02560180  RH  063%=      5-min Rain = 0
KNH1 261454Z 20013KT 26/18 A3016 RMK A01 T02550180  RH  063%=      5-min Rain = 0
KNH1 261455Z 19012KT 25/18 A3016 RMK A01 T02540179  RH  063%=      5-min Rain = 0
KNH1 261456Z 20013KT 26/18 A3016 RMK A01 T02550179  RH  063%=      5-min Rain = 0
KNH1 261457Z 20013KT 26/18 A3015 RMK A01 T02550179  RH  063%=      5-min Rain = 0
KNH1 261458Z 20012KT 26/18 A3016 RMK A01 T02560181  RH  063%=      5-min Rain = 0
KNH1 261459Z 20014KT 26/18 A3016 RMK A01 T02570179  RH  062%=      5-min Rain = 0
KNH1 261500Z 19013KT 26/18 A3016 RMK A01 T02570178  RH  062%=      5-min Rain = 0
KNH1 261501Z 19012KT 26/18 A3016 RMK A01 T02580179  RH  062%=      5-min Rain = 0
KNH1 261502Z 19013KT 26/18 A3016 RMK A01 T02580179  RH  061%=      5-min Rain = 0
KNH1 261503Z 19013KT 26/18 A3016 RMK A01 T02590179  RH  061%=      5-min Rain = 0
KNH1 261504Z 19011KT 26/18 A3015 RMK A01 T02590180  RH  062%=      5-min Rain = 0
KNH1 261505Z 20012KT 26/18 A3015 RMK A01 T02580181  RH  062%=      5-min Rain = 0
KNH1 261506Z 20012KT 26/18 A3015 RMK A01 T02590180  RH  062%=      5-min Rain = 0
KNH1 261507Z 20013KT 26/18 A3015 RMK A01 T02600182  RH  062%=      5-min Rain = 0
KNH1 261508Z 20011KT 26/18 A3015 RMK A01 T02640183  RH  061%=      5-min Rain = 0
KNH1 261509Z 19012KT 27/18 A3015 RMK A01 T02650182  RH  060%=      5-min Rain = 0
KNH1 261510Z 19012KT 26/18 A3015 RMK A01 T02640179  RH  060%=      5-min Rain = 0
KNH1 261511Z 19011KT 26/18 A3015 RMK A01 T02620179  RH  060%=      5-min Rain = 0
KNH1 261512Z 21011KT 26/18 A3015 RMK A01 T02590180  RH  062%=      5-min Rain = 0
KNH1 261513Z 19011KT 26/18 A3015 RMK A01 T02620182  RH  061%=      5-min Rain = 0
KNH1 261514Z 19014KT 27/18 A3015 RMK A01 T02660178  RH  059%=      5-min Rain = 0
KNH1 261515Z 20013KT 27/18 A3015 RMK A01 T02650176  RH  058%=      5-min Rain = 0
KNH1 261516Z 20014KT 26/17 A3015 RMK A01 T02640174  RH  058%=      5-min Rain = 0
KNH1 261517Z 20011KT 26/17 A3015 RMK A01 T02620174  RH  058%=      5-min Rain = 0
KNH1 261518Z 19010KT 26/18 A3015 RMK A01 T02630178  RH  060%=      5-min Rain = 0
KNH1 261519Z 19012KT 27/18 A3015 RMK A01 T02650180  RH  059%=      5-min Rain = 0
KNH1 261520Z 19013KT 27/18 A3015 RMK A01 T02660179  RH  059%=      5-min Rain = 0
KNH1 261521Z 19013KT 27/18 A3015 RMK A01 T02660177  RH  058%=      5-min Rain = 0
KNH1 261522Z 19011KT 27/18 A3015 RMK A01 T02660177  RH  058%=      5-min Rain = 0
KNH1 261523Z 20012KT 27/18 A3015 RMK A01 T02660177  RH  058%=      5-min Rain = 0
KNH1 261524Z 20013KT 27/18 A3015 RMK A01 T02680177  RH  057%=      5-min Rain = 0
KNH1 261525Z 21012KT 27/18 A3015 RMK A01 T02680179  RH  058%=      5-min Rain = 0
KNH1 261526Z 21011KT 27/18 A3015 RMK A01 T02680179  RH  058%=      5-min Rain = 0
KNH1 261527Z 20014KT 27/18 A3015 RMK A01 T02680177  RH  058%=      5-min Rain = 0
KNH1 261528Z 18013KT 27/18 A3015 RMK A01 T02690177  RH  057%=      5-min Rain = 0
KNH1 261529Z 18012KT 27/18 A3015 RMK A01 T02690178  RH  058%=      5-min Rain = 0
KNH1 261530Z 20014KT 27/18 A3015 RMK A01 T02690178  RH  057%=      5-min Rain = 0
KNH1 261531Z 20011KT 27/18 A3015 RMK A01 T02720176  RH  056%=      5-min Rain = 0
KNH1 261532Z 21012KT 27/18 A3015 RMK A01 T02720177  RH  056%=      5-min Rain = 0
KNH1 261533Z 19011KT 27/18 A3015 RMK A01 T02700177  RH  057%=      5-min Rain = 0
KNH1 261534Z 20014KT 27/18 A3015 RMK A01 T02720175  RH  055%=      5-min Rain = 0
KNH1 261535Z 20012KT 27/17 A3015 RMK A01 T02730174  RH  055%=      5-min Rain = 0
KNH1 261536Z 20013KT 27/18 A3015 RMK A01 T02720176  RH  056%=      5-min Rain = 0
KNH1 261537Z 21012KT 27/17 A3015 RMK A01 T02720173  RH  055%=      5-min Rain = 0
KNH1 261538Z 21015KT 27/18 A3015 RMK A01 T02720176  RH  056%=      5-min Rain = 0
KNH1 261539Z 20013KT 27/18 A3015 RMK A01 T02730178  RH  056%=      5-min Rain = 0
KNH1 261540Z 20014KT 28/18 A3015 RMK A01 T02760175  RH  054%=      5-min Rain = 0
KNH1 261541Z 20014KT 28/17 A3015 RMK A01 T02760171  RH  053%=      5-min Rain = 0
KNH1 261542Z 20015KT 28/17 A3015 RMK A01 T02760172  RH  053%=      5-min Rain = 0
KNH1 261543Z 21014KT 27/17 A3015 RMK A01 T02740172  RH  054%=      5-min Rain = 0
KNH1 261544Z 20011G16KT 28/17 A3015 RMK A01 T02750173  RH  054%=      5-min Rain = 0
KNH1 261545Z 20012KT 28/17 A3015 RMK A01 T02750173  RH  054%=      5-min Rain = 0
KNH1 261546Z 21011KT 27/17 A3015 RMK A01 T02740174  RH  054%=      5-min Rain = 0
KNH1 261547Z 19011KT 28/18 A3015 RMK A01 T02760175  RH  054%=      5-min Rain = 0
KNH1 261548Z 21013KT 28/18 A3015 RMK A01 T02770175  RH  054%=      5-min Rain = 0
KNH1 261549Z 21014KT 28/17 A3015 RMK A01 T02780174  RH  053%=      5-min Rain = 0
KNH1 261550Z 20012KT 28/17 A3015 RMK A01 T02790173  RH  053%=      5-min Rain = 0
KNH1 261551Z 20011KT 28/18 A3015 RMK A01 T02800175  RH  053%=      5-min Rain = 0
KNH1 261552Z 21014KT 28/17 A3015 RMK A01 T02800172  RH  052%=      5-min Rain = 0
KNH1 261553Z 20014KT 28/17 A3015 RMK A01 T02780172  RH  052%=      5-min Rain = 0
KNH1 261554Z 20016KT 28/17 A3015 RMK A01 T02790170  RH  052%=      5-min Rain = 0
KNH1 261555Z 19015KT 28/17 A3015 RMK A01 T02800170  RH  051%=      5-min Rain = 0
KNH1 261556Z 18014KT 28/17 A3015 RMK A01 T02790167  RH  050%=      5-min Rain = 0
KNH1 261557Z 20012KT 28/17 A3015 RMK A01 T02780165  RH  050%=      5-min Rain = 0
KNH1 261558Z 21011KT 28/17 A3015 RMK A01 T02790167  RH  051%=      5-min Rain = 0
KNH1 261559Z 21011KT 28/17 A3015 RMK A01 T02810170  RH  051%=      5-min Rain = 0
KNH1 261600Z 20014KT 28/17 A3015 RMK A01 T02810167  RH  050%=      5-min Rain = 0
KNH1 261601Z 20014KT 28/16 A3015 RMK A01 T02820164  RH  049%=      5-min Rain = 0
KNH1 261602Z 20013KT 28/16 A3015 RMK A01 T02830163  RH  048%=      5-min Rain = 0
KNH1 261603Z 20010KT 28/17 A3015 RMK A01 T02820167  RH  049%=      5-min Rain = 0
KNH1 261604Z 19014KT 29/17 A3015 RMK A01 T02860165  RH  048%=      5-min Rain = 0
KNH1 261605Z 20014KT 29/16 A3015 RMK A01 T02890161  RH  046%=      5-min Rain = 0
KNH1 261606Z 19014KT 29/16 A3015 RMK A01 T02870164  RH  047%=      5-min Rain = 0
KNH1 261607Z 19014KT 29/17 A3015 RMK A01 T02850166  RH  049%=      5-min Rain = 0
KNH1 261608Z 19015KT 28/16 A3015 RMK A01 T02840163  RH  048%=      5-min Rain = 0
KNH1 261609Z 20013KT 28/17 A3015 RMK A01 T02840166  RH  049%=      5-min Rain = 0
KNH1 261610Z 20015KT 29/17 A3015 RMK A01 T02850167  RH  049%=      5-min Rain = 0
KNH1 261611Z 21012KT 28/17 A3015 RMK A01 T02840166  RH  049%=      5-min Rain = 0
KNH1 261612Z 19015KT 28/17 A3015 RMK A01 T02820166  RH  049%=      5-min Rain = 0
KNH1 261613Z 18015KT 28/16 A3015 RMK A01 T02840161  RH  047%=      5-min Rain = 0
KNH1 261614Z 18014KT 29/16 A3015 RMK A01 T02850164  RH  048%=      5-min Rain = 0
KNH1 261615Z 19015KT 28/17 A3015 RMK A01 T02840165  RH  048%=      5-min Rain = 0
KNH1 261616Z 19013KT 29/17 A3015 RMK A01 T02860166  RH  048%=      5-min Rain = 0
KNH1 261617Z 19016KT 29/16 A3015 RMK A01 T02880164  RH  047%=      5-min Rain = 0
KNH1 261618Z 19015KT 29/17 A3015 RMK A01 T02880165  RH  047%=      5-min Rain = 0
KNH1 261619Z 18014KT 29/17 A3015 RMK A01 T02870167  RH  048%=      5-min Rain = 0
KNH1 261620Z 19012KT 29/17 A3015 RMK A01 T02870166  RH  048%=      5-min Rain = 0
KNH1 261621Z 19012KT 29/17 A3015 RMK A01 T02860168  RH  049%=      5-min Rain = 0
KNH1 261622Z 19013KT 29/17 A3015 RMK A01 T02880168  RH  048%=      5-min Rain = 0
KNH1 261623Z 20013KT 29/17 A3015 RMK A01 T02890167  RH  048%=      5-min Rain = 0
KNH1 261624Z 20014KT 29/16 A3015 RMK A01 T02910163  RH  046%=      5-min Rain = 0
KNH1 261625Z 21014KT 29/16 A3015 RMK A01 T02890159  RH  045%=      5-min Rain = 0
KNH1 261626Z 20015KT 29/16 A3015 RMK A01 T02890161  RH  046%=      5-min Rain = 0
KNH1 261627Z 19012KT 29/16 A3015 RMK A01 T02890162  RH  046%=      5-min Rain = 0
KNH1 261628Z 20013KT 29/16 A3015 RMK A01 T02920164  RH  046%=      5-min Rain = 0
KNH1 261629Z 21013KT 29/16 A3015 RMK A01 T02920162  RH  045%=      5-min Rain = 0
KNH1 261630Z 20014KT 29/16 A3015 RMK A01 T02920161  RH  045%=      5-min Rain = 0
KNH1 261631Z 20013KT 29/16 A3015 RMK A01 T02920161  RH  045%=      5-min Rain = 0
KNH1 261632Z 19012KT 29/16 A3015 RMK A01 T02910163  RH  046%=      5-min Rain = 0
KNH1 261633Z 18011KT 29/16 A3015 RMK A01 T02910164  RH  046%=      5-min Rain = 0
KNH1 261634Z 20014KT 29/16 A3015 RMK A01 T02920164  RH  046%=      5-min Rain = 0
KNH1 261635Z 19011G16KT 29/17 A3015 RMK A01 T02940165  RH  046%=      5-min Rain = 0
KNH1 261636Z 19012KT 29/17 A3015 RMK A01 T02930167  RH  047%=      5-min Rain = 0
KNH1 261637Z 18014KT 29/16 A3015 RMK A01 T02910158  RH  045%=      5-min Rain = 0
KNH1 261638Z 20015KT 29/16 A3015 RMK A01 T02920158  RH  044%=      5-min Rain = 0
KNH1 261639Z 20015KT 29/16 A3015 RMK A01 T02940159  RH  044%=      5-min Rain = 0
KNH1 261640Z 20013KT 30/16 A3015 RMK A01 T02950163  RH  045%=      5-min Rain = 0
KNH1 261641Z 20011KT 30/16 A3015 RMK A01 T02970160  RH  044%=      5-min Rain = 0
KNH1 261642Z 20011KT 30/16 A3015 RMK A01 T02980160  RH  043%=      5-min Rain = 0
KNH1 261643Z 21015KT 30/16 A3015 RMK A01 T03010163  RH  043%=      5-min Rain = 0
KNH1 261644Z 20017KT 30/16 A3015 RMK A01 T03000162  RH  043%=      5-min Rain = 0
KNH1 261645Z 20013KT 30/16 A3015 RMK A01 T02960162  RH  044%=      5-min Rain = 0
KNH1 261646Z 20013KT 29/16 A3015 RMK A01 T02940158  RH  044%=      5-min Rain = 0
KNH1 261647Z 21013KT 30/16 A3015 RMK A01 T02950157  RH  043%=      5-min Rain = 0
KNH1 261648Z 20012KT 30/16 A3015 RMK A01 T02970162  RH  044%=      5-min Rain = 0
KNH1 261649Z 21013KT 30/16 A3015 RMK A01 T03010160  RH  043%=      5-min Rain = 0
KNH1 261650Z 20013KT 30/16 A3015 RMK A01 T03020161  RH  043%=      5-min Rain = 0
KNH1 261651Z 19011KT 30/16 A3015 RMK A01 T03020162  RH  043%=      5-min Rain = 0
KNH1 261652Z 20011KT 30/16 A3015 RMK A01 T03000162  RH  043%=      5-min Rain = 0
KNH1 261653Z 20012KT 30/17 A3015 RMK A01 T03000165  RH  044%=      5-min Rain = 0
KNH1 261654Z 20013KT 30/16 A3015 RMK A01 T03010163  RH  043%=      5-min Rain = 0
KNH1 261655Z 20011KT 30/16 A3015 RMK A01 T03010164  RH  044%=      5-min Rain = 0
KNH1 261656Z 20014KT 30/16 A3015 RMK A01 T03040157  RH  041%=      5-min Rain = 0
KNH1 261657Z 21014KT 30/16 A3015 RMK A01 T03040160  RH  042%=      5-min Rain = 0
KNH1 261658Z 21011KT 30/16 A3015 RMK A01 T03030157  RH  041%=      5-min Rain = 0
KNH1 261659Z 20010KT 30/16 A3015 RMK A01 T03010160  RH  042%=      5-min Rain = 0
KNH1 261700Z 19011G16KT 30/16 A3016 RMK A01 T03020164  RH  043%=      5-min Rain = 0
KNH1 261701Z 20014KT 30/16 A3016 RMK A01 T03040162  RH  042%=      5-min Rain = 0
KNH1 261702Z 20015KT 31/16 A3016 RMK A01 T03050161  RH  042%=      5-min Rain = 0
KNH1 261703Z 19013KT 31/16 A3016 RMK A01 T03060161  RH  042%=      5-min Rain = 0
KNH1 261704Z 21011KT 30/16 A3016 RMK A01 T03030163  RH  043%=      5-min Rain = 0
KNH1 261705Z 21008KT 30/16 A3016 RMK A01 T03010164  RH  044%=      5-min Rain = 0
KNH1 261706Z 18008KT 30/16 A3016 RMK A01 T02990164  RH  044%=      5-min Rain = 0
KNH1 261707Z 19011G18KT 30/17 A3016 RMK A01 T02990165  RH  044%=      5-min Rain = 0
KNH1 261708Z 19016KT 30/16 A3016 RMK A01 T03010158  RH  042%=      5-min Rain = 0
KNH1 261709Z 19014KT 30/16 A3016 RMK A01 T03040159  RH  042%=      5-min Rain = 0
KNH1 261710Z 18010KT 30/16 A3016 RMK A01 T03040160  RH  042%=      5-min Rain = 0
KNH1 261711Z 18006KT 30/16 A3016 RMK A01 T03020161  RH  043%=      5-min Rain = 0
KNH1 261712Z 19007KT 30/16 A3016 RMK A01 T03010163  RH  043%=      5-min Rain = 0
KNH1 261713Z 20011G17KT 30/16 A3016 RMK A01 T03010164  RH  044%=      5-min Rain = 0
KNH1 261714Z 19014KT 31/16 A3016 RMK A01 T03050161  RH  042%=      5-min Rain = 0
KNH1 261715Z 20012KT 31/15 A3016 RMK A01 T03050153  RH  040%=      5-min Rain = 0
KNH1 261716Z 21014KT 31/16 A3016 RMK A01 T03050157  RH  041%=      5-min Rain = 0
KNH1 261717Z 20011KT 31/16 A3016 RMK A01 T03050159  RH  041%=      5-min Rain = 0
KNH1 261718Z 20011KT 31/16 A3016 RMK A01 T03070157  RH  040%=      5-min Rain = 0
KNH1 261719Z 21009KT 31/16 A3016 RMK A01 T03060157  RH  041%=      5-min Rain = 0
KNH1 261720Z 19011KT 31/16 A3016 RMK A01 T03050159  RH  041%=      5-min Rain = 0
KNH1 261721Z 18013KT 31/16 A3016 RMK A01 T03080156  RH  040%=      5-min Rain = 0
KNH1 261722Z 18012KT 31/15 A3016 RMK A01 T03100153  RH  039%=      5-min Rain = 0
KNH1 261723Z 19010G15KT 31/15 A3016 RMK A01 T03070153  RH  039%=      5-min Rain = 0
KNH1 261724Z 18009KT 31/16 A3016 RMK A01 T03090159  RH  040%=      5-min Rain = 0
KNH1 261725Z 18008KT 31/15 A3016 RMK A01 T03110154  RH  039%=      5-min Rain = 0
KNH1 261726Z 17009KT 31/16 A3016 RMK A01 T03100158  RH  040%=      5-min Rain = 0
KNH1 261727Z 17009KT 31/16 A3016 RMK A01 T03100155  RH  039%=      5-min Rain = 0
KNH1 261728Z 20013KT 31/16 A3016 RMK A01 T03080159  RH  041%=      5-min Rain = 0
KNH1 261729Z 19011KT 31/16 A3016 RMK A01 T03100159  RH  040%=      5-min Rain = 0
KNH1 261730Z 18010KT 31/16 A3016 RMK A01 T03110157  RH  039%=      5-min Rain = 0
KNH1 261731Z 17007G12KT 31/16 A3016 RMK A01 T03100155  RH  039%=      5-min Rain = 0
KNH1 261732Z 18008G13KT 31/16 A3015 RMK A01 T03100156  RH  040%=      5-min Rain = 0
KNH1 261733Z 18013KT 31/15 A3015 RMK A01 T03100154  RH  039%=      5-min Rain = 0
KNH1 261734Z 20013KT 31/15 A3015 RMK A01 T03080151  RH  038%=      5-min Rain = 0
KNH1 261735Z 18011G16KT 31/15 A3015 RMK A01 T03090152  RH  039%=      5-min Rain = 0
KNH1 261736Z 15006G11KT 31/16 A3015 RMK A01 T03130157  RH  039%=      5-min Rain = 0
KNH1 261737Z 15007KT 32/16 A3015 RMK A01 T03160158  RH  039%=      5-min Rain = 0
KNH1 261738Z 16009KT 32/16 A3015 RMK A01 T03160157  RH  038%=      5-min Rain = 0
KNH1 261739Z 18012KT 31/15 A3015 RMK A01 T03110151  RH  038%=      5-min Rain = 0
KNH1 261740Z 17011KT 31/15 A3015 RMK A01 T03100148  RH  037%=      5-min Rain = 0
KNH1 261741Z 17010KT 31/15 A3015 RMK A01 T03080152  RH  039%=      5-min Rain = 0
KNH1 261742Z 17012KT 31/15 A3015 RMK A01 T03080151  RH  039%=      5-min Rain = 0
KNH1 261743Z 17012KT 31/15 A3015 RMK A01 T03080151  RH  039%=      5-min Rain = 0
KNH1 261744Z 16010KT 31/15 A3015 RMK A01 T03080152  RH  039%=      5-min Rain = 0
KNH1 261745Z 17010G15KT 31/15 A3015 RMK A01 T03070151  RH  039%=      5-min Rain = 0
KNH1 261746Z 17010KT 31/15 A3015 RMK A01 T03060151  RH  039%=      5-min Rain = 0
KNH1 261747Z 17009KT 31/15 A3015 RMK A01 T03080150  RH  038%=      5-min Rain = 0
KNH1 261748Z 18012KT 31/15 A3015 RMK A01 T03120151  RH  038%=      5-min Rain = 0
KNH1 261749Z 18009KT 31/15 A3016 RMK A01 T03120154  RH  038%=      5-min Rain = 0
KNH1 261750Z 19006KT 31/15 A3015 RMK A01 T03090152  RH  039%=      5-min Rain = 0
KNH1 261751Z 18009KT 31/15 A3015 RMK A01 T03070153  RH  039%=      5-min Rain = 0
KNH1 261752Z 18011KT 31/15 A3016 RMK A01 T03080153  RH  039%=      5-min Rain = 0
KNH1 261753Z 17012KT 31/15 A3016 RMK A01 T03120151  RH  038%=      5-min Rain = 0
KNH1 261754Z 17009KT 31/15 A3016 RMK A01 T03130152  RH  038%=      5-min Rain = 0
KNH1 261755Z 17008KT 31/15 A3016 RMK A01 T03120153  RH  038%=      5-min Rain = 0
KNH1 261756Z 17008KT 31/15 A3016 RMK A01 T03100152  RH  038%=      5-min Rain = 0
KNH1 261757Z 17011KT 31/15 A3015 RMK A01 T03090154  RH  039%=      5-min Rain = 0
KNH1 261758Z 17010G17KT 31/16 A3016 RMK A01 T03090155  RH  039%=      5-min Rain = 0
KNH1 261759Z 17014KT 31/15 A3016 RMK A01 T03120154  RH  038%=      5-min Rain = 0
KNH1 261800Z 17011KT 31/15 A3015 RMK A01 T03120153  RH  038%=      5-min Rain = 0
KNH1 261801Z 15008KT 31/16 A3015 RMK A01 T03110156  RH  039%=      5-min Rain = 0
KNH1 261802Z 15009KT 32/16 A3016 RMK A01 T03160159  RH  039%=      5-min Rain = 0
KNH1 261803Z 17012KT 32/16 A3016 RMK A01 T03180155  RH  037%=      5-min Rain = 0
KNH1 261804Z 18013KT 32/15 A3016 RMK A01 T03170151  RH  037%=      5-min Rain = 0
KNH1 261805Z 16010KT 32/15 A3016 RMK A01 T03180151  RH  036%=      5-min Rain = 0
KNH1 261806Z 16010KT 32/15 A3016 RMK A01 T03180150  RH  036%=      5-min Rain = 0
KNH1 261807Z 17010KT 32/14 A3016 RMK A01 T03160144  RH  035%=      5-min Rain = 0
KNH1 261808Z 17011KT 31/15 A3016 RMK A01 T03140146  RH  036%=      5-min Rain = 0
KNH1 261809Z 17009KT 31/15 A3016 RMK A01 T03110151  RH  038%=      5-min Rain = 0
KNH1 261810Z 18009G15KT 31/15 A3015 RMK A01 T03080153  RH  039%=      5-min Rain = 0
KNH1 261811Z 17012G17KT 31/16 A3015 RMK A01 T03110155  RH  039%=      5-min Rain = 0
KNH1 261812Z 17014KT 32/15 A3015 RMK A01 T03170146  RH  036%=      5-min Rain = 0
KNH1 261813Z 19013KT 32/14 A3015 RMK A01 T03160141  RH  035%=      5-min Rain = 0
KNH1 261814Z 19010KT 32/13 A3015 RMK A01 T03160131  RH  032%=      5-min Rain = 0
KNH1 261815Z 14008KT 32/14 A3015 RMK A01 T03160139  RH  034%=      5-min Rain = 0
KNH1 261816Z 16009G15KT 32/15 A3015 RMK A01 T03180147  RH  036%=      5-min Rain = 0
KNH1 261817Z 17011KT 32/15 A3015 RMK A01 T03180146  RH  035%=      5-min Rain = 0
KNH1 261818Z 19011KT 32/15 A3015 RMK A01 T03160153  RH  037%=      5-min Rain = 0
KNH1 261819Z 17010G17KT 32/15 A3015 RMK A01 T03150154  RH  038%=      5-min Rain = 0
KNH1 261820Z 16014KT 31/15 A3015 RMK A01 T03140149  RH  037%=      5-min Rain = 0
KNH1 261821Z 17012G17KT 31/14 A3015 RMK A01 T03140141  RH  035%=      5-min Rain = 0
KNH1 261822Z 17013KT 31/14 A3015 RMK A01 T03140144  RH  036%=      5-min Rain = 0
KNH1 261823Z 17013KT 31/15 A3015 RMK A01 T03130146  RH  036%=      5-min Rain = 0
KNH1 261824Z 17010G15KT 31/14 A3015 RMK A01 T03110144  RH  036%=      5-min Rain = 0
KNH1 261825Z 17009KT 31/15 A3015 RMK A01 T03100147  RH  037%=      5-min Rain = 0
KNH1 261826Z 17008KT 31/16 A3015 RMK A01 T03110156  RH  039%=      5-min Rain = 0
KNH1 261827Z 18008KT 31/16 A3015 RMK A01 T03120159  RH  040%=      5-min Rain = 0
KNH1 261828Z 17007KT 31/16 A3015 RMK A01 T03110160  RH  040%=      5-min Rain = 0
KNH1 261829Z 16011G16KT 31/16 A3015 RMK A01 T03130161  RH  040%=      5-min Rain = 0
KNH1 261830Z 14010G15KT 32/16 A3015 RMK A01 T03180162  RH  039%=      5-min Rain = 0
KNH1 261831Z 14012KT 32/16 A3015 RMK A01 T03210159  RH  038%=      5-min Rain = 0
KNH1 261832Z 16010KT 32/16 A3015 RMK A01 T03190158  RH  038%=      5-min Rain = 0
KNH1 261833Z 16012KT 32/16 A3015 RMK A01 T03170157  RH  038%=      5-min Rain = 0
KNH1 261834Z 15008G14KT 32/16 A3015 RMK A01 T03180158  RH  038%=      5-min Rain = 0
KNH1 261835Z 16011KT 32/16 A3015 RMK A01 T03200155  RH  037%=      5-min Rain = 0
KNH1 261836Z 14011KT 32/16 A3015 RMK A01 T03190155  RH  037%=      5-min Rain = 0
KNH1 261837Z 16013KT 32/16 A3015 RMK A01 T03180157  RH  038%=      5-min Rain = 0
KNH1 261838Z 17011KT 32/16 A3015 RMK A01 T03170157  RH  038%=      5-min Rain = 0
KNH1 261839Z 17012KT 32/15 A3015 RMK A01 T03150154  RH  038%=      5-min Rain = 0
KNH1 261840Z 17013KT 31/16 A3015 RMK A01 T03140155  RH  038%=      5-min Rain = 0
KNH1 261841Z 16010KT 31/15 A3015 RMK A01 T03130151  RH  038%=      5-min Rain = 0
KNH1 261842Z 17008KT 31/16 A3015 RMK A01 T03130157  RH  039%=      5-min Rain = 0
KNH1 261843Z 17007KT 31/16 A3015 RMK A01 T03130159  RH  039%=      5-min Rain = 0
KNH1 261844Z 16008KT 31/16 A3015 RMK A01 T03130157  RH  039%=      5-min Rain = 0
KNH1 261845Z 16011G16KT 31/16 A3015 RMK A01 T03130159  RH  039%=      5-min Rain = 0
KNH1 261846Z 16012KT 32/16 A3015 RMK A01 T03170158  RH  038%=      5-min Rain = 0
KNH1 261847Z 15011KT 32/16 A3015 RMK A01 T03180158  RH  038%=      5-min Rain = 0
KNH1 261848Z 15008G13KT 32/15 A3015 RMK A01 T03160154  RH  038%=      5-min Rain = 0
KNH1 261849Z 17006KT 32/16 A3015 RMK A01 T03160159  RH  039%=      5-min Rain = 0
KNH1 261850Z 18011G16KT 32/16 A3015 RMK A01 T03190164  RH  039%=      5-min Rain = 0
KNH1 261851Z 14010KT 32/17 A3015 RMK A01 T03220165  RH  039%=      5-min Rain = 0
KNH1 261852Z 16011KT 32/16 A3015 RMK A01 T03230161  RH  038%=      5-min Rain = 0
KNH1 261853Z 17014G19KT 32/16 A3015 RMK A01 T03210157  RH  037%=      5-min Rain = 0
KNH1 261854Z 18013KT 32/16 A3015 RMK A01 T03170156  RH  038%=      5-min Rain = 0
KNH1 261855Z 17012KT 32/15 A3015 RMK A01 T03170154  RH  037%=      5-min Rain = 0
KNH1 261856Z 14010KT 32/15 A3015 RMK A01 T03170153  RH  037%=      5-min Rain = 0
KNH1 261857Z 14008KT 32/15 A3015 RMK A01 T03180153  RH  037%=      5-min Rain = 0
KNH1 261858Z 13008KT 32/16 A3015 RMK A01 T03200155  RH  037%=      5-min Rain = 0
KNH1 261859Z 15010G15KT 32/16 A3015 RMK A01 T03220158  RH  037%=      5-min Rain = 0
KNH1 261900Z 16012G19KT 32/16 A3015 RMK A01 T03220162  RH  038%=      5-min Rain = 0
KNH1 261901Z 15011KT 32/16 A3014 RMK A01 T03220159  RH  038%=      5-min Rain = 0
KNH1 261902Z 14012G18KT 32/16 A3014 RMK A01 T03200155  RH  037%=      5-min Rain = 0
KNH1 261903Z 14013KT 32/15 A3015 RMK A01 T03210151  RH  036%=      5-min Rain = 0
KNH1 261904Z 16010G15KT 32/15 A3015 RMK A01 T03200149  RH  036%=      5-min Rain = 0
KNH1 261905Z 17012KT 32/15 A3015 RMK A01 T03200151  RH  036%=      5-min Rain = 0
KNH1 261906Z 17012KT 32/15 A3015 RMK A01 T03200148  RH  035%=      5-min Rain = 0
KNH1 261907Z 17008KT 32/15 A3015 RMK A01 T03190153  RH  037%=      5-min Rain = 0
KNH1 261908Z 19010KT 32/16 A3014 RMK A01 T03190155  RH  037%=      5-min Rain = 0
KNH1 261909Z 20012KT 32/16 A3014 RMK A01 T03190161  RH  039%=      5-min Rain = 0
KNH1 261910Z 20011KT 32/16 A3014 RMK A01 T03210162  RH  039%=      5-min Rain = 0
KNH1 261911Z 18009KT 32/16 A3014 RMK A01 T03230162  RH  038%=      5-min Rain = 0
KNH1 261912Z 16008G15KT 32/16 A3014 RMK A01 T03240163  RH  038%=      5-min Rain = 0
KNH1 261913Z 17011G17KT 33/16 A3014 RMK A01 T03260161  RH  037%=      5-min Rain = 0
KNH1 261914Z 17013KT 33/16 A3014 RMK A01 T03270158  RH  036%=      5-min Rain = 0
KNH1 261915Z 18012G19KT 33/16 A3014 RMK A01 T03260155  RH  036%=      5-min Rain = 0
KNH1 261916Z 18016KT 33/15 A3014 RMK A01 T03250149  RH  035%=      5-min Rain = 0
KNH1 261917Z 17008KT 32/15 A3015 RMK A01 T03240148  RH  034%=      5-min Rain = 0
KNH1 261918Z 17006KT 32/15 A3014 RMK A01 T03220149  RH  035%=      5-min Rain = 0
KNH1 261919Z 18011G16KT 32/15 A3014 RMK A01 T03230151  RH  036%=      5-min Rain = 0
KNH1 261920Z 17012G17KT 32/15 A3014 RMK A01 T03230151  RH  035%=      5-min Rain = 0
KNH1 261921Z 18013KT 32/15 A3014 RMK A01 T03200151  RH  036%=      5-min Rain = 0
KNH1 261922Z 17014KT 32/15 A3014 RMK A01 T03220150  RH  035%=      5-min Rain = 0
KNH1 261923Z 18009KT 32/15 A3014 RMK A01 T03220149  RH  035%=      5-min Rain = 0
KNH1 261924Z 17007G19KT 32/16 A3014 RMK A01 T03220155  RH  036%=      5-min Rain = 0
KNH1 261925Z 16009G15KT 32/16 A3014 RMK A01 T03230158  RH  037%=      5-min Rain = 0
KNH1 261926Z 16011G17KT 32/16 A3014 RMK A01 T03240157  RH  037%=      5-min Rain = 0
KNH1 261927Z 16013KT 32/15 A3014 RMK A01 T03230152  RH  036%=      5-min Rain = 0
KNH1 261928Z 16011KT 32/15 A3014 RMK A01 T03220150  RH  036%=      5-min Rain = 0
KNH1 261929Z 16010G16KT 32/15 A3014 RMK A01 T03200152  RH  036%=      5-min Rain = 0
KNH1 261930Z 17012KT 32/15 A3014 RMK A01 T03230153  RH  036%=      5-min Rain = 0
KNH1 261931Z 17013KT 32/15 A3014 RMK A01 T03240153  RH  036%=      5-min Rain = 0
KNH1 261932Z 17015KT 33/16 A3014 RMK A01 T03250157  RH  036%=      5-min Rain = 0
KNH1 261933Z 18012KT 33/16 A3014 RMK A01 T03270156  RH  036%=      5-min Rain = 0
KNH1 261934Z 18009KT 33/16 A3014 RMK A01 T03250155  RH  036%=      5-min Rain = 0
KNH1 261935Z 16014G20KT 32/15 A3014 RMK A01 T03230150  RH  035%=      5-min Rain = 0
KNH1 261936Z 17011KT 32/14 A3014 RMK A01 T03210141  RH  034%=      5-min Rain = 0
KNH1 261937Z 17010KT 32/14 A3014 RMK A01 T03190141  RH  034%=      5-min Rain = 0
KNH1 261938Z 16011G16KT 32/14 A3014 RMK A01 T03210143  RH  034%=      5-min Rain = 0
KNH1 261939Z 16012KT 33/14 A3014 RMK A01 T03250144  RH  034%=      5-min Rain = 0
KNH1 261940Z 17011KT 33/15 A3014 RMK A01 T03250145  RH  034%=      5-min Rain = 0
KNH1 261941Z 16008G13KT 33/14 A3014 RMK A01 T03250143  RH  033%=      5-min Rain = 0
KNH1 261942Z 17009KT 32/14 A3014 RMK A01 T03240138  RH  032%=      5-min Rain = 0
KNH1 261943Z 15011KT 32/15 A3014 RMK A01 T03230148  RH  035%=      5-min Rain = 0
KNH1 261944Z 16012G17KT 32/15 A3014 RMK A01 T03240150  RH  035%=      5-min Rain = 0
KNH1 261945Z 16012G17KT 33/15 A3013 RMK A01 T03250154  RH  036%=      5-min Rain = 0
KNH1 261946Z 15013G19KT 33/15 A3013 RMK A01 T03260154  RH  035%=      5-min Rain = 0
KNH1 261947Z 15008KT 33/15 A3013 RMK A01 T03260151  RH  035%=      5-min Rain = 0
KNH1 261948Z 16011KT 33/15 A3013 RMK A01 T03260153  RH  035%=      5-min Rain = 0
KNH1 261949Z 18016KT 32/15 A3013 RMK A01 T03230154  RH  036%=      5-min Rain = 0
KNH1 261950Z 18016KT 33/15 A3013 RMK A01 T03250150  RH  035%=      5-min Rain = 0
KNH1 261951Z 18011G16KT 33/15 A3013 RMK A01 T03250146  RH  034%=      5-min Rain = 0
KNH1 261952Z 18011KT 32/15 A3013 RMK A01 T03230146  RH  034%=      5-min Rain = 0
KNH1 261953Z 16011G17KT 32/15 A3013 RMK A01 T03220154  RH  036%=      5-min Rain = 0
KNH1 261954Z 17011KT 32/16 A3013 RMK A01 T03240158  RH  037%=      5-min Rain = 0
KNH1 261955Z 18012KT 33/15 A3013 RMK A01 T03270150  RH  034%=      5-min Rain = 0
KNH1 261956Z 17010KT 33/16 A3013 RMK A01 T03310156  RH  035%=      5-min Rain = 0
KNH1 261957Z 17012KT 33/15 A3013 RMK A01 T03320152  RH  034%=      5-min Rain = 0
KNH1 261958Z 17011KT 33/15 A3013 RMK A01 T03310152  RH  034%=      5-min Rain = 0
KNH1 261959Z 17009G17KT 33/15 A3013 RMK A01 T03300154  RH  035%=      5-min Rain = 0
KNH1 262000Z 16013G20KT 33/15 A3013 RMK A01 T03290154  RH  035%=      5-min Rain = 0
KNH1 262001Z 18013G19KT 33/15 A3013 RMK A01 T03270153  RH  035%=      5-min Rain = 0
KNH1 262002Z 17016KT 33/15 A3013 RMK A01 T03260150  RH  035%=      5-min Rain = 0
KNH1 262003Z 16012KT 32/15 A3013 RMK A01 T03230149  RH  035%=      5-min Rain = 0
KNH1 262004Z 16007KT 32/15 A3013 RMK A01 T03220150  RH  036%=      5-min Rain = 0
KNH1 262005Z 17014KT 32/15 A3013 RMK A01 T03230151  RH  035%=      5-min Rain = 0
KNH1 262006Z 18013G18KT 32/15 A3013 RMK A01 T03230147  RH  035%=      5-min Rain = 0
KNH1 262007Z 18013KT 33/15 A3013 RMK A01 T03260149  RH  034%=      5-min Rain = 0
KNH1 262008Z 18011G16KT 33/14 A3013 RMK A01 T03300144  RH  033%=      5-min Rain = 0
KNH1 262009Z 15013KT 33/13 A3013 RMK A01 T03340133  RH  030%=      5-min Rain = 0
KNH1 262010Z 16013G18KT 33/13 A3013 RMK A01 T03310126  RH  029%=      5-min Rain = 0
KNH1 262011Z 15009KT 33/13 A3013 RMK A01 T03290126  RH  029%=      5-min Rain = 0
KNH1 262012Z 17011KT 33/13 A3013 RMK A01 T03290132  RH  030%=      5-min Rain = 0
KNH1 262013Z 16009G14KT 33/14 A3013 RMK A01 T03280136  RH  031%=      5-min Rain = 0
KNH1 262014Z 17007G12KT 33/14 A3013 RMK A01 T03270139  RH  032%=      5-min Rain = 0
KNH1 262015Z 17010KT 33/15 A3013 RMK A01 T03250145  RH  034%=      5-min Rain = 0
KNH1 262016Z 16009G15KT 32/15 A3013 RMK A01 T03240151  RH  035%=      5-min Rain = 0
KNH1 262017Z 17010KT 33/15 A3013 RMK A01 T03270152  RH  035%=      5-min Rain = 0
KNH1 262018Z 19013G18KT 33/15 A3013 RMK A01 T03270151  RH  035%=      5-min Rain = 0
KNH1 262019Z 19016G21KT 33/15 A3013 RMK A01 T03300150  RH  034%=      5-min Rain = 0
KNH1 262020Z 18015KT 33/15 A3013 RMK A01 T03320148  RH  033%=      5-min Rain = 0
KNH1 262021Z 16011G16KT 33/15 A3013 RMK A01 T03310147  RH  033%=      5-min Rain = 0
KNH1 262022Z 18009KT 33/15 A3013 RMK A01 T03270147  RH  034%=      5-min Rain = 0
KNH1 262023Z 18012KT 33/14 A3013 RMK A01 T03250143  RH  033%=      5-min Rain = 0
KNH1 262024Z 18012KT 33/14 A3013 RMK A01 T03260142  RH  033%=      5-min Rain = 0
KNH1 262025Z 19010KT 33/14 A3013 RMK A01 T03290140  RH  032%=      5-min Rain = 0
KNH1 262026Z 17008KT 33/14 A3013 RMK A01 T03310140  RH  032%=      5-min Rain = 0
KNH1 262027Z 17009G17KT 33/14 A3013 RMK A01 T03310137  RH  031%=      5-min Rain = 0
KNH1 262028Z 18014KT 33/13 A3013 RMK A01 T03310132  RH  030%=      5-min Rain = 0
KNH1 262029Z 17013KT 33/13 A3013 RMK A01 T03310130  RH  030%=      5-min Rain = 0
KNH1 262030Z 17015KT 33/13 A3013 RMK A01 T03290127  RH  029%=      5-min Rain = 0
KNH1 262031Z 17009G14KT 33/13 A3013 RMK A01 T03270128  RH  030%=      5-min Rain = 0
KNH1 262032Z 17007KT 33/13 A3013 RMK A01 T03270133  RH  031%=      5-min Rain = 0
KNH1 262033Z 17010G17KT 33/14 A3013 RMK A01 T03280135  RH  031%=      5-min Rain = 0
KNH1 262034Z 17013KT 33/13 A3013 RMK A01 T03300131  RH  030%=      5-min Rain = 0
KNH1 262035Z 17012KT 33/12 A3013 RMK A01 T03290124  RH  029%=      5-min Rain = 0
KNH1 262036Z 16011KT 33/11 A3013 RMK A01 T03290112  RH  027%=      5-min Rain = 0
KNH1 262037Z 16008KT 33/12 A3013 RMK A01 T03280124  RH  029%=      5-min Rain = 0
KNH1 262038Z 16007KT 33/13 A3012 RMK A01 T03290132  RH  030%=      5-min Rain = 0
KNH1 262039Z 17008KT 33/13 A3012 RMK A01 T03310131  RH  030%=      5-min Rain = 0
KNH1 262040Z 17006KT 33/14 A3012 RMK A01 T03290144  RH  033%=      5-min Rain = 0
KNH1 262041Z 19012G17KT 33/15 A3012 RMK A01 T03280146  RH  033%=      5-min Rain = 0
KNH1 262042Z 17013KT 33/15 A3012 RMK A01 T03330147  RH  033%=      5-min Rain = 0
KNH1 262043Z 17015KT 33/14 A3012 RMK A01 T03340141  RH  031%=      5-min Rain = 0
KNH1 262044Z 16010KT 33/14 A3012 RMK A01 T03310141  RH  032%=      5-min Rain = 0
KNH1 262045Z 16010KT 33/14 A3012 RMK A01 T03300142  RH  032%=      5-min Rain = 0
KNH1 262046Z 17008G13KT 33/15 A3012 RMK A01 T03300146  RH  033%=      5-min Rain = 0
KNH1 262047Z 17012G17KT 33/15 A3012 RMK A01 T03280147  RH  034%=      5-min Rain = 0
KNH1 262048Z 17016G23KT 33/15 A3012 RMK A01 T03270148  RH  034%=      5-min Rain = 0
KNH1 262049Z 16013KT 33/15 A3012 RMK A01 T03270148  RH  034%=      5-min Rain = 0
KNH1 262050Z 16011KT 33/15 A3012 RMK A01 T03260150  RH  034%=      5-min Rain = 0
KNH1 262051Z 16013G20KT 33/15 A3012 RMK A01 T03270147  RH  034%=      5-min Rain = 0
KNH1 262052Z 15008G14KT 33/15 A3012 RMK A01 T03270145  RH  033%=      5-min Rain = 0
KNH1 262053Z 14010KT 33/15 A3012 RMK A01 T03290147  RH  033%=      5-min Rain = 0
KNH1 262054Z 13010KT 33/15 A3012 RMK A01 T03310151  RH  034%=      5-min Rain = 0
KNH1 262055Z 16008G16KT 33/15 A3012 RMK A01 T03320151  RH  034%=      5-min Rain = 0
KNH1 262056Z 16013KT 33/15 A3012 RMK A01 T03310147  RH  033%=      5-min Rain = 0
KNH1 262057Z 15009G15KT 33/15 A3012 RMK A01 T03300149  RH  034%=      5-min Rain = 0
KNH1 262058Z 15007KT 33/15 A3012 RMK A01 T03330152  RH  034%=      5-min Rain = 0
KNH1 262059Z 17013KT 34/15 A3012 RMK A01 T03360148  RH  032%=      5-min Rain = 0
KNH1 262100Z 17013KT 34/14 A3012 RMK A01 T03350140  RH  031%=      5-min Rain = 0
KNH1 262101Z 18011KT 33/14 A3012 RMK A01 T03310139  RH  031%=      5-min Rain = 0
KNH1 262102Z 19009KT 33/14 A3012 RMK A01 T03310138  RH  031%=      5-min Rain = 0
KNH1 262103Z 18009KT 33/14 A3012 RMK A01 T03310140  RH  031%=      5-min Rain = 0
KNH1 262104Z 19013G18KT 33/14 A3012 RMK A01 T03310143  RH  032%=      5-min Rain = 0
KNH1 262105Z 18013KT 33/15 A3012 RMK A01 T03340149  RH  033%=      5-min Rain = 0
KNH1 262106Z 19013KT 33/14 A3012 RMK A01 T03340144  RH  032%=      5-min Rain = 0
KNH1 262107Z 18011KT 33/15 A3012 RMK A01 T03320148  RH  033%=      5-min Rain = 0
KNH1 262108Z 19008KT 33/15 A3012 RMK A01 T03320149  RH  033%=      5-min Rain = 0
KNH1 262109Z 18012G17KT 33/15 A3012 RMK A01 T03300152  RH  034%=      5-min Rain = 0
KNH1 262110Z 15013G19KT 33/15 A3012 RMK A01 T03300152  RH  034%=      5-min Rain = 0
KNH1 262111Z 14014KT 33/15 A3012 RMK A01 T03300151  RH  034%=      5-min Rain = 0
KNH1 262112Z 14012KT 33/15 A3012 RMK A01 T03300151  RH  034%=      5-min Rain = 0
KNH1 262113Z 14011KT 33/15 A3012 RMK A01 T03290151  RH  034%=      5-min Rain = 0
KNH1 262114Z 15010G16KT 33/15 A3012 RMK A01 T03300152  RH  034%=      5-min Rain = 0
KNH1 262115Z 15012KT 33/15 A3012 RMK A01 T03290152  RH  034%=      5-min Rain = 0
KNH1 262116Z 15009G14KT 33/15 A3012 RMK A01 T03290152  RH  034%=      5-min Rain = 0
KNH1 262117Z 15011KT 33/15 A3011 RMK A01 T03290146  RH  033%=      5-min Rain = 0
KNH1 262118Z 13010KT 33/15 A3011 RMK A01 T03290151  RH  034%=      5-min Rain = 0
KNH1 262119Z 13007KT 33/16 A3011 RMK A01 T03300158  RH  036%=      5-min Rain = 0
KNH1 262120Z 17010G15KT 33/16 A3011 RMK A01 T03310158  RH  035%=      5-min Rain = 0
KNH1 262121Z 17012KT 33/16 A3011 RMK A01 T03310159  RH  036%=      5-min Rain = 0
KNH1 262122Z 17012G17KT 33/16 A3011 RMK A01 T03310162  RH  036%=      5-min Rain = 0
KNH1 262123Z 16012KT 33/16 A3011 RMK A01 T03320159  RH  036%=      5-min Rain = 0
KNH1 262124Z 16012KT 33/16 A3011 RMK A01 T03320158  RH  035%=      5-min Rain = 0
KNH1 262125Z 15011G16KT 33/16 A3011 RMK A01 T03300158  RH  036%=      5-min Rain = 0
KNH1 262126Z 16009KT 33/16 A3011 RMK A01 T03300158  RH  036%=      5-min Rain = 0
KNH1 262127Z 19011G16KT 33/16 A3011 RMK A01 T03300160  RH  036%=      5-min Rain = 0
KNH1 262128Z 19013KT 33/16 A3011 RMK A01 T03320160  RH  036%=      5-min Rain = 0
KNH1 262129Z 19011KT 33/16 A3011 RMK A01 T03300158  RH  036%=      5-min Rain = 0
KNH1 262130Z 18009KT 33/16 A3011 RMK A01 T03320161  RH  036%=      5-min Rain = 0
KNH1 262131Z 16011KT 33/16 A3011 RMK A01 T03340161  RH  035%=      5-min Rain = 0
KNH1 262132Z 16010KT 33/16 A3011 RMK A01 T03310157  RH  035%=      5-min Rain = 0
KNH1 262133Z 17012KT 33/16 A3011 RMK A01 T03280157  RH  036%=      5-min Rain = 0
KNH1 262134Z 16011KT 33/16 A3011 RMK A01 T03300157  RH  035%=      5-min Rain = 0
KNH1 262135Z 14011KT 33/16 A3011 RMK A01 T03310156  RH  035%=      5-min Rain = 0
KNH1 262136Z 13009KT 33/16 A3011 RMK A01 T03310156  RH  035%=      5-min Rain = 0
KNH1 262137Z 15006G12KT 33/16 A3011 RMK A01 T03310157  RH  035%=      5-min Rain = 0
KNH1 262138Z 16011KT 33/16 A3011 RMK A01 T03320155  RH  035%=      5-min Rain = 0
KNH1 262139Z 15008KT 33/16 A3011 RMK A01 T03310155  RH  035%=      5-min Rain = 0
KNH1 262140Z 16012KT 33/15 A3011 RMK A01 T03310153  RH  034%=      5-min Rain = 0
KNH1 262141Z 16010G17KT 33/15 A3011 RMK A01 T03300152  RH  034%=      5-min Rain = 0
KNH1 262142Z 15009KT 33/15 A3011 RMK A01 T03290152  RH  034%=      5-min Rain = 0
KNH1 262143Z 16011G16KT 33/15 A3011 RMK A01 T03300153  RH  034%=      5-min Rain = 0
KNH1 262144Z 16012G17KT 33/15 A3011 RMK A01 T03310149  RH  033%=      5-min Rain = 0
KNH1 262145Z 16012KT 33/15 A3011 RMK A01 T03300147  RH  033%=      5-min Rain = 0
KNH1 262146Z 16010KT 33/15 A3011 RMK A01 T03300150  RH  034%=      5-min Rain = 0
KNH1 262147Z 16009KT 33/15 A3011 RMK A01 T03320148  RH  033%=      5-min Rain = 0
KNH1 262148Z 17011G16KT 33/15 A3011 RMK A01 T03320149  RH  033%=      5-min Rain = 0
KNH1 262149Z 17012KT 33/15 A3011 RMK A01 T03310147  RH  033%=      5-min Rain = 0
KNH1 262150Z 17011KT 33/15 A3011 RMK A01 T03270146  RH  034%=      5-min Rain = 0
KNH1 262151Z 14008KT 33/15 A3011 RMK A01 T03270149  RH  034%=      5-min Rain = 0
KNH1 262152Z 14012KT 33/15 A3011 RMK A01 T03290148  RH  033%=      5-min Rain = 0
KNH1 262153Z 17013KT 33/15 A3011 RMK A01 T03300146  RH  033%=      5-min Rain = 0
KNH1 262154Z 17010KT 33/15 A3011 RMK A01 T03270145  RH  033%=      5-min Rain = 0
KNH1 262155Z 17010G15KT 33/15 A3011 RMK A01 T03270148  RH  034%=      5-min Rain = 0
KNH1 262156Z 17011KT 33/15 A3011 RMK A01 T03290151  RH  034%=      5-min Rain = 0
KNH1 262157Z 17011KT 33/15 A301 RMK A01 T03270152  RH  035%=      5-min Rain = 0
KNH1 262158Z 17013G18KT 33/15 A301 RMK A01 T03280152  RH  035%=      5-min Rain = 0
KNH1 262159Z 17014KT 33/15 A301 RMK A01 T03280152  RH  035%=      5-min Rain = 0
KNH1 262200Z 17014KT 33/15 A301 RMK A01 T03270153  RH  035%=      5-min Rain = 0
KNH1 262201Z 17012KT 33/15 A301 RMK A01 T03260152  RH  035%=      5-min Rain = 0
KNH1 262202Z 17009G14KT 33/15 A301 RMK A01 T03260152  RH  035%=      5-min Rain = 0
KNH1 262203Z 16010G15KT 33/15 A301 RMK A01 T03260150  RH  035%=      5-min Rain = 0
KNH1 262204Z 15009KT 33/15 A301 RMK A01 T03250152  RH  035%=      5-min Rain = 0
KNH1 262205Z 14010G15KT 33/15 A301 RMK A01 T03250153  RH  035%=      5-min Rain = 0
KNH1 262206Z 15011KT 33/15 A301 RMK A01 T03260151  RH  035%=      5-min Rain = 0
KNH1 262207Z 13006KT 33/15 A301 RMK A01 T03270154  RH  035%=      5-min Rain = 0
KNH1 262208Z 14010G16KT 33/16 A301 RMK A01 T03290156  RH  035%=      5-min Rain = 0
KNH1 262209Z 17012G17KT 33/15 A301 RMK A01 T03310152  RH  034%=      5-min Rain = 0
KNH1 262210Z 16013KT 33/15 A301 RMK A01 T03290151  RH  034%=      5-min Rain = 0
KNH1 262211Z 16011KT 33/15 A301 RMK A01 T03260150  RH  035%=      5-min Rain = 0
KNH1 262212Z 16010G16KT 33/15 A301 RMK A01 T03260152  RH  035%=      5-min Rain = 0
KNH1 262213Z 17012KT 33/15 A301 RMK A01 T03280150  RH  034%=      5-min Rain = 0
KNH1 262214Z 16014KT 33/15 A3011 RMK A01 T03270148  RH  034%=      5-min Rain = 0
KNH1 262215Z 16009KT 33/15 A301 RMK A01 T03250147  RH  034%=      5-min Rain = 0
KNH1 262216Z 17012G17KT 32/15 A301 RMK A01 T03230149  RH  035%=      5-min Rain = 0
KNH1 262217Z 15012KT 32/15 A301 RMK A01 T03230148  RH  035%=      5-min Rain = 0
KNH1 262218Z 14013G18KT 32/15 A301 RMK A01 T03230145  RH  034%=      5-min Rain = 0
KNH1 262219Z 14007KT 32/15 A301 RMK A01 T03230146  RH  034%=      5-min Rain = 0
KNH1 262220Z 14013KT 33/15 A3011 RMK A01 T03260145  RH  034%=      5-min Rain = 0
KNH1 262221Z 16008KT 33/14 A3011 RMK A01 T03260144  RH  033%=      5-min Rain = 0
KNH1 262222Z 16010G15KT 33/15 A3011 RMK A01 T03250145  RH  034%=      5-min Rain = 0
KNH1 262223Z 17008KT 33/15 A3011 RMK A01 T03250148  RH  034%=      5-min Rain = 0
KNH1 262224Z 16011G16KT 33/15 A3011 RMK A01 T03270148  RH  034%=      5-min Rain = 0
KNH1 262225Z 16013KT 33/15 A3011 RMK A01 T03260147  RH  034%=      5-min Rain = 0
KNH1 262226Z 16010KT 33/15 A3011 RMK A01 T03250145  RH  034%=      5-min Rain = 0
KNH1 262227Z 17012KT 33/15 A3011 RMK A01 T03250146  RH  034%=      5-min Rain = 0
KNH1 262228Z 18012KT 32/15 A3011 RMK A01 T03240147  RH  034%=      5-min Rain = 0
KNH1 262229Z 17014G19KT 32/15 A3011 RMK A01 T03240148  RH  034%=      5-min Rain = 0
KNH1 262230Z 18012KT 32/15 A3011 RMK A01 T03240147  RH  034%=      5-min Rain = 0
KNH1 262231Z 17012KT 33/15 A3011 RMK A01 T03250146  RH  034%=      5-min Rain = 0
KNH1 262232Z 15008KT 32/15 A3011 RMK A01 T03210145  RH  034%=      5-min Rain = 0
KNH1 262233Z 16009KT 32/15 A3011 RMK A01 T03210146  RH  035%=      5-min Rain = 0
KNH1 262234Z 16008KT 32/15 A3011 RMK A01 T03220147  RH  035%=      5-min Rain = 0
KNH1 262235Z 16008KT 32/15 A3011 RMK A01 T03230148  RH  035%=      5-min Rain = 0
KNH1 262236Z 16014KT 33/15 A3011 RMK A01 T03270149  RH  034%=      5-min Rain = 0
KNH1 262237Z 16012KT 33/15 A3011 RMK A01 T03270146  RH  034%=      5-min Rain = 0
KNH1 262238Z 16014G19KT 33/15 A3011 RMK A01 T03250145  RH  034%=      5-min Rain = 0
KNH1 262239Z 17016KT 33/15 A3011 RMK A01 T03250145  RH  034%=      5-min Rain = 0
KNH1 262240Z 17013KT 32/14 A3011 RMK A01 T03220144  RH  034%=      5-min Rain = 0
KNH1 262241Z 17011KT 32/14 A3011 RMK A01 T03200143  RH  034%=      5-min Rain = 0
KNH1 262242Z 17009KT 32/14 A301 RMK A01 T03190141  RH  034%=      5-min Rain = 0
KNH1 262243Z 14009KT 32/14 A301 RMK A01 T03190143  RH  034%=      5-min Rain = 0
KNH1 262244Z 14013KT 32/14 A301 RMK A01 T03220143  RH  034%=      5-min Rain = 0
KNH1 262245Z 14014KT 32/14 A301 RMK A01 T03240141  RH  033%=      5-min Rain = 0
KNH1 262246Z 15010G15KT 32/14 A301 RMK A01 T03230142  RH  033%=      5-min Rain = 0
KNH1 262247Z 15010G15KT 32/14 A301 RMK A01 T03240143  RH  033%=      5-min Rain = 0
KNH1 262248Z 15009KT 33/14 A301 RMK A01 T03260142  RH  033%=      5-min Rain = 0
KNH1 262249Z 15012KT 33/14 A301 RMK A01 T03270143  RH  033%=      5-min Rain = 0
KNH1 262250Z 15012KT 33/14 A301 RMK A01 T03260141  RH  033%=      5-min Rain = 0
KNH1 262251Z 17008KT 32/14 A301 RMK A01 T03230142  RH  034%=      5-min Rain = 0
KNH1 262252Z 18014KT 32/14 A301 RMK A01 T03230139  RH  033%=      5-min Rain = 0
KNH1 262253Z 17010KT 32/14 A301 RMK A01 T03220139  RH  033%=      5-min Rain = 0
KNH1 262254Z 15009G15KT 32/14 A301 RMK A01 T03240142  RH  033%=      5-min Rain = 0
KNH1 262255Z 15013KT 33/14 A301 RMK A01 T03250144  RH  033%=      5-min Rain = 0
KNH1 262256Z 17013KT 33/14 A301 RMK A01 T03250144  RH  034%=      5-min Rain = 0
KNH1 262257Z 16010KT 32/15 A301 RMK A01 T03230145  RH  034%=      5-min Rain = 0
KNH1 262258Z 16008G13KT 32/15 A301 RMK A01 T03240145  RH  034%=      5-min Rain = 0
KNH1 262259Z 16010G15KT 32/15 A301 RMK A01 T03240146  RH  034%=      5-min Rain = 0
KNH1 262300Z 15011G16KT 32/15 A301 RMK A01 T03220146  RH  034%=      5-min Rain = 0
KNH1 262301Z 14013KT 32/15 A301 RMK A01 T03220145  RH  034%=      5-min Rain = 0
KNH1 262302Z 16010KT 32/15 A301 RMK A01 T03220146  RH  034%=      5-min Rain = 0
KNH1 262303Z 16008G18KT 32/15 A301 RMK A01 T03230148  RH  035%=      5-min Rain = 0
KNH1 262304Z 17010KT 33/15 A301 RMK A01 T03260150  RH  035%=      5-min Rain = 0
KNH1 262305Z 16012KT 33/15 A301 RMK A01 T03270148  RH  034%=      5-min Rain = 0
KNH1 262306Z 15011KT 32/15 A301 RMK A01 T03230146  RH  034%=      5-min Rain = 0
KNH1 262307Z 14011KT 32/14 A301 RMK A01 T03220144  RH  034%=      5-min Rain = 0
KNH1 262308Z 15009G15KT 32/15 A301 RMK A01 T03230146  RH  034%=      5-min Rain = 0
KNH1 262309Z 16010KT 33/15 A301 RMK A01 T03250145  RH  034%=      5-min Rain = 0
KNH1 262310Z 16011KT 33/15 A301 RMK A01 T03250148  RH  034%=      5-min Rain = 0
KNH1 262311Z 17016G21KT 33/15 A301 RMK A01 T03270148  RH  034%=      5-min Rain = 0
KNH1 262312Z 16016KT 32/14 A301 RMK A01 T03240144  RH  034%=      5-min Rain = 0
KNH1 262313Z 16012G17KT 32/14 A301 RMK A01 T03200143  RH  034%=      5-min Rain = 0
KNH1 262314Z 16011KT 32/14 A301 RMK A01 T03190144  RH  035%=      5-min Rain = 0
KNH1 262315Z 16011KT 32/14 A301 RMK A01 T03190144  RH  035%=      5-min Rain = 0
KNH1 262316Z 16010G15KT 32/15 A301 RMK A01 T03210146  RH  035%=      5-min Rain = 0
KNH1 262317Z 15009G14KT 32/15 A301 RMK A01 T03220146  RH  034%=      5-min Rain = 0
KNH1 262318Z 16009G14KT 32/15 A301 RMK A01 T03220145  RH  034%=      5-min Rain = 0
KNH1 262319Z 16011KT 32/14 A301 RMK A01 T03210142  RH  034%=      5-min Rain = 0
KNH1 262320Z 14009KT 32/14 A301 RMK A01 T03200141  RH  034%=      5-min Rain = 0
KNH1 262321Z 16011KT 32/14 A301 RMK A01 T03200140  RH  034%=      5-min Rain = 0
KNH1 262322Z 16013G19KT 32/14 A301 RMK A01 T03210140  RH  033%=      5-min Rain = 0
KNH1 262323Z 17011KT 32/14 A301 RMK A01 T03210141  RH  034%=      5-min Rain = 0
KNH1 262324Z 17013KT 32/14 A301 RMK A01 T03210139  RH  033%=      5-min Rain = 0
KNH1 262325Z 17015KT 32/14 A301 RMK A01 T03210136  RH  032%=      5-min Rain = 0
KNH1 262326Z 18012G17KT 32/13 A301 RMK A01 T03190133  RH  032%=      5-min Rain = 0
KNH1 262327Z 17013KT 32/13 A3009 RMK A01 T03190134  RH  033%=      5-min Rain = 0
KNH1 262328Z 17010G16KT 32/14 A301 RMK A01 T03190137  RH  033%=      5-min Rain = 0
KNH1 262329Z 16014G19KT 32/14 A3009 RMK A01 T03190138  RH  033%=      5-min Rain = 0
KNH1 262330Z 16011KT 32/14 A3009 RMK A01 T03180140  RH  034%=      5-min Rain = 0
KNH1 262331Z 16009G16KT 32/14 A3009 RMK A01 T03170139  RH  034%=      5-min Rain = 0
KNH1 262332Z 15008KT 32/14 A3009 RMK A01 T03180138  RH  034%=      5-min Rain = 0
KNH1 262333Z 13011KT 32/14 A3009 RMK A01 T03190137  RH  033%=      5-min Rain = 0
KNH1 262334Z 14012KT 32/14 A3009 RMK A01 T03200138  RH  033%=      5-min Rain = 0
KNH1 262335Z 14011KT 32/14 A3009 RMK A01 T03200140  RH  034%=      5-min Rain = 0
KNH1 262336Z 14012KT 32/14 A3009 RMK A01 T03190143  RH  034%=      5-min Rain = 0
KNH1 262337Z 15012KT 32/15 A3009 RMK A01 T03190146  RH  035%=      5-min Rain = 0
KNH1 262338Z 17012KT 32/15 A3009 RMK A01 T03190147  RH  035%=      5-min Rain = 0
KNH1 262339Z 15010G15KT 32/15 A3009 RMK A01 T03180146  RH  035%=      5-min Rain = 0
KNH1 262340Z 16013KT 32/14 A3009 RMK A01 T03190142  RH  034%=      5-min Rain = 0
KNH1 262341Z 16014G20KT 32/14 A3009 RMK A01 T03190139  RH  034%=      5-min Rain = 0
KNH1 262342Z 15013G18KT 32/14 A3009 RMK A01 T03170137  RH  034%=      5-min Rain = 0
KNH1 262343Z 16013G19KT 32/14 A3009 RMK A01 T03160136  RH  033%=      5-min Rain = 0
KNH1 262344Z 16012KT 32/14 A3009 RMK A01 T03160136  RH  033%=      5-min Rain = 0
KNH1 262345Z 17011KT 32/14 A301 RMK A01 T03160137  RH  034%=      5-min Rain = 0
KNH1 262346Z 16012KT 32/14 A301 RMK A01 T03170137  RH  033%=      5-min Rain = 0
KNH1 262347Z 15012KT 32/14 A301 RMK A01 T03180137  RH  033%=      5-min Rain = 0
KNH1 262348Z 16012KT 32/14 A301 RMK A01 T03180137  RH  033%=      5-min Rain = 0
KNH1 262349Z 16011KT 32/14 A301 RMK A01 T03180136  RH  033%=      5-min Rain = 0
KNH1 262350Z 16015KT 32/13 A301 RMK A01 T03170131  RH  032%=      5-min Rain = 0
KNH1 262351Z 17015KT 32/13 A301 RMK A01 T03160133  RH  033%=      5-min Rain = 0
KNH1 262352Z 16010KT 31/14 A301 RMK A01 T03140136  RH  034%=      5-min Rain = 0
KNH1 262353Z 16010G15KT 31/14 A301 RMK A01 T03140137  RH  034%=      5-min Rain = 0
KNH1 262354Z 16010KT 32/14 A301 RMK A01 T03150137  RH  034%=      5-min Rain = 0
KNH1 262355Z 16013KT 32/14 A301 RMK A01 T03170135  RH  033%=      5-min Rain = 0
KNH1 262356Z 17014KT 32/14 A301 RMK A01 T03160137  RH  034%=      5-min Rain = 0
KNH1 262357Z 18014KT 32/13 A301 RMK A01 T03170133  RH  033%=      5-min Rain = 0
KNH1 262358Z 17013KT 32/13 A301 RMK A01 T03170134  RH  033%=      5-min Rain = 0
KNH1 262359Z 16015KT 32/14 A301 RMK A01 T03170142  RH  035%=      5-min Rain = 0
KNH1 270000Z 17011G16KT 32/14 A301 RMK A01 T03150143  RH  035%=      5-min Rain = 0
KNH1 270001Z 16008KT 32/15 A301 RMK A01 T03150145  RH  036%=      5-min Rain = 0
KNH1 270002Z 16011KT 32/15 A301 RMK A01 T03160147  RH  036%=      5-min Rain = 0
KNH1 270003Z 16010G15KT 32/14 A301 RMK A01 T03160144  RH  035%=      5-min Rain = 0
KNH1 270004Z 14011G19KT 32/14 A301 RMK A01 T03160144  RH  035%=      5-min Rain = 0
KNH1 270005Z 15008G15KT 32/14 A301 RMK A01 T03170142  RH  035%=      5-min Rain = 0
KNH1 270006Z 16016KT 32/14 A301 RMK A01 T03170140  RH  034%=      5-min Rain = 0
KNH1 270007Z 16013KT 32/14 A301 RMK A01 T03150140  RH  035%=      5-min Rain = 0
KNH1 270008Z 17013KT 32/14 A301 RMK A01 T03150141  RH  035%=      5-min Rain = 0
KNH1 270009Z 17009KT 31/14 A301 RMK A01 T03140140  RH  035%=      5-min Rain = 0
KNH1 270010Z 16010KT 31/14 A301 RMK A01 T03140140  RH  035%=      5-min Rain = 0
KNH1 270011Z 16009KT 31/14 A301 RMK A01 T03140141  RH  035%=      5-min Rain = 0
KNH1 270012Z 16014KT 31/14 A301 RMK A01 T03140139  RH  035%=      5-min Rain = 0
KNH1 270013Z 16012KT 31/13 A301 RMK A01 T03140134  RH  033%=      5-min Rain = 0
KNH1 270014Z 17012KT 32/14 A301 RMK A01 T03150135  RH  034%=      5-min Rain = 0
KNH1 270015Z 16010KT 31/14 A301 RMK A01 T03140136  RH  034%=      5-min Rain = 0
KNH1 270016Z 16013KT 32/14 A301 RMK A01 T03150138  RH  034%=      5-min Rain = 0
KNH1 270017Z 16012KT 32/14 A301 RMK A01 T03150139  RH  034%=      5-min Rain = 0
KNH1 270018Z 15009KT 31/14 A301 RMK A01 T03140140  RH  035%=      5-min Rain = 0
KNH1 270019Z 17009KT 31/14 A301 RMK A01 T03130140  RH  035%=      5-min Rain = 0
KNH1 270020Z 16013KT 31/14 A301 RMK A01 T03140140  RH  035%=      5-min Rain = 0
KNH1 270021Z 16012G18KT 31/14 A301 RMK A01 T03140139  RH  035%=      5-min Rain = 0
KNH1 270022Z 17012KT 31/14 A301 RMK A01 T03130139  RH  035%=      5-min Rain = 0
KNH1 270023Z 16011KT 31/14 A301 RMK A01 T03130138  RH  034%=      5-min Rain = 0
KNH1 270024Z 17011KT 31/14 A301 RMK A01 T03130138  RH  034%=      5-min Rain = 0
KNH1 270025Z 17012KT 31/14 A301 RMK A01 T03130139  RH  035%=      5-min Rain = 0
KNH1 270026Z 16012KT 31/14 A301 RMK A01 T03130141  RH  035%=      5-min Rain = 0
KNH1 270027Z 16008KT 31/14 A301 RMK A01 T03120142  RH  036%=      5-min Rain = 0
KNH1 270028Z 16009KT 31/14 A301 RMK A01 T03130142  RH  035%=      5-min Rain = 0
KNH1 270029Z 17012KT 31/14 A301 RMK A01 T03140144  RH  036%=      5-min Rain = 0
KNH1 270030Z 17012KT 31/14 A301 RMK A01 T03130144  RH  036%=      5-min Rain = 0
KNH1 270031Z 17011KT 31/14 A301 RMK A01 T03120144  RH  036%=      5-min Rain = 0
KNH1 270032Z 17011G16KT 31/14 A301 RMK A01 T03120143  RH  036%=      5-min Rain = 0
KNH1 270033Z 17010KT 31/14 A301 RMK A01 T03110142  RH  036%=      5-min Rain = 0
KNH1 270034Z 16011KT 31/14 A301 RMK A01 T03110142  RH  036%=      5-min Rain = 0
KNH1 270035Z 16013G18KT 31/14 A301 RMK A01 T03110141  RH  036%=      5-min Rain = 0
KNH1 270036Z 16015KT 31/14 A301 RMK A01 T03110140  RH  035%=      5-min Rain = 0
KNH1 270037Z 16015KT 31/14 A301 RMK A01 T03100140  RH  036%=      5-min Rain = 0
KNH1 270038Z 16012KT 31/14 A301 RMK A01 T03090140  RH  036%=      5-min Rain = 0
KNH1 270039Z 16011KT 31/14 A301 RMK A01 T03080139  RH  036%=      5-min Rain = 0
KNH1 270040Z 15009KT 31/14 A301 RMK A01 T03080139  RH  036%=      5-min Rain = 0
KNH1 270041Z 16010G16KT 31/14 A301 RMK A01 T03090140  RH  036%=      5-min Rain = 0
KNH1 270042Z 15007KT 31/14 A301 RMK A01 T03100143  RH  036%=      5-min Rain = 0
KNH1 270043Z 16012KT 31/14 A301 RMK A01 T03100143  RH  036%=      5-min Rain = 0
KNH1 270044Z 15012KT 31/14 A301 RMK A01 T03100141  RH  036%=      5-min Rain = 0
KNH1 270045Z 16012G17KT 31/14 A301 RMK A01 T03100140  RH  035%=      5-min Rain = 0
KNH1 270046Z 16013KT 31/14 A301 RMK A01 T03100140  RH  035%=      5-min Rain = 0
KNH1 270047Z 16011KT 31/14 A301 RMK A01 T03090140  RH  036%=      5-min Rain = 0
KNH1 270048Z 16011KT 31/14 A301 RMK A01 T03090142  RH  036%=      5-min Rain = 0
KNH1 270049Z 15011G16KT 31/15 A301 RMK A01 T03080145  RH  037%=      5-min Rain = 0
KNH1 270050Z 16010KT 31/15 A3011 RMK A01 T03090145  RH  037%=      5-min Rain = 0
KNH1 270051Z 16009KT 31/14 A3011 RMK A01 T03090144  RH  037%=      5-min Rain = 0
KNH1 270052Z 16011KT 31/15 A3011 RMK A01 T03080145  RH  037%=      5-min Rain = 0
KNH1 270053Z 16011KT 31/15 A3011 RMK A01 T03080145  RH  037%=      5-min Rain = 0
KNH1 270054Z 17012KT 31/15 A3011 RMK A01 T03080145  RH  037%=      5-min Rain = 0
KNH1 270055Z 16012KT 31/14 A3011 RMK A01 T03080143  RH  037%=      5-min Rain = 0
KNH1 270056Z 16013KT 31/14 A3011 RMK A01 T03070139  RH  036%=      5-min Rain = 0
KNH1 270057Z 16012KT 31/14 A3011 RMK A01 T03070142  RH  037%=      5-min Rain = 0
KNH1 270058Z 15010KT 31/14 A3011 RMK A01 T03050143  RH  037%=      5-min Rain = 0
KNH1 270059Z 15010KT 31/14 A3011 RMK A01 T03050144  RH  037%=      5-min Rain = 0
KNH1 270100Z 16010G15KT 31/15 A3011 RMK A01 T03050145  RH  038%=      5-min Rain = 0
KNH1 270101Z 15010KT 31/15 A3011 RMK A01 T03050145  RH  038%=      5-min Rain = 0
KNH1 270102Z 16009KT 30/15 A3011 RMK A01 T03040146  RH  038%=      5-min Rain = 0
KNH1 270103Z 17012G17KT 30/15 A3011 RMK A01 T03040146  RH  038%=      5-min Rain = 0
KNH1 270104Z 17012KT 30/15 A3011 RMK A01 T03040146  RH  038%=      5-min Rain = 0
KNH1 270105Z 17011KT 30/15 A3011 RMK A01 T03040146  RH  038%=      5-min Rain = 0
KNH1 270106Z 15010KT 30/15 A3011 RMK A01 T03040145  RH  038%=      5-min Rain = 0
KNH1 270107Z 16011KT 30/15 A3011 RMK A01 T03040145  RH  038%=      5-min Rain = 0
KNH1 270108Z 15009G14KT 30/15 A3011 RMK A01 T03030145  RH  038%=      5-min Rain = 0
KNH1 270109Z 16010KT 30/15 A3011 RMK A01 T03030145  RH  038%=      5-min Rain = 0
KNH1 270110Z 16008KT 30/15 A3011 RMK A01 T03020145  RH  038%=      5-min Rain = 0
KNH1 270111Z 15009G14KT 30/15 A3011 RMK A01 T03020146  RH  038%=      5-min Rain = 0
KNH1 270112Z 16010G16KT 30/15 A3011 RMK A01 T03020146  RH  039%=      5-min Rain = 0
KNH1 270113Z 16010KT 30/15 A3011 RMK A01 T03010146  RH  039%=      5-min Rain = 0
KNH1 270114Z 16010KT 30/15 A3011 RMK A01 T03010147  RH  039%=      5-min Rain = 0
KNH1 270115Z 16009KT 30/15 A3011 RMK A01 T03000146  RH  039%=      5-min Rain = 0
KNH1 270116Z 16011KT 30/15 A3011 RMK A01 T02990146  RH  039%=      5-min Rain = 0
KNH1 270117Z 16011KT 30/15 A3011 RMK A01 T02980146  RH  039%=      5-min Rain = 0
KNH1 270118Z 16010KT 30/15 A3011 RMK A01 T02980146  RH  039%=      5-min Rain = 0
KNH1 270119Z 16007KT 30/15 A3011 RMK A01 T02980146  RH  040%=      5-min Rain = 0
KNH1 270120Z 16009G15KT 30/15 A3011 RMK A01 T02970146  RH  040%=      5-min Rain = 0
KNH1 270121Z 15010KT 30/15 A3011 RMK A01 T02970146  RH  040%=      5-min Rain = 0
KNH1 270122Z 15010G15KT 30/15 A3011 RMK A01 T02970146  RH  040%=      5-min Rain = 0
KNH1 270123Z 16009KT 30/15 A3011 RMK A01 T02970146  RH  040%=      5-min Rain = 0
KNH1 270124Z 15009KT 30/15 A3011 RMK A01 T02970145  RH  040%=      5-min Rain = 0
KNH1 270125Z 15009G14KT 30/15 A3011 RMK A01 T02970145  RH  040%=      5-min Rain = 0
KNH1 270126Z 16010G15KT 30/15 A3011 RMK A01 T02960145  RH  040%=      5-min Rain = 0
KNH1 270127Z 15011KT 30/15 A3011 RMK A01 T02960145  RH  040%=      5-min Rain = 0
KNH1 270128Z 16010G15KT 30/15 A3011 RMK A01 T02950145  RH  040%=      5-min Rain = 0
KNH1 270129Z 16010G15KT 30/15 A3011 RMK A01 T02950146  RH  040%=      5-min Rain = 0
KNH1 270130Z 16011KT 29/15 A3011 RMK A01 T02940145  RH  040%=      5-min Rain = 0
KNH1 270131Z 16011G16KT 29/15 A3011 RMK A01 T02940145  RH  040%=      5-min Rain = 0
KNH1 270132Z 16011KT 29/15 A3011 RMK A01 T02940145  RH  040%=      5-min Rain = 0
KNH1 270133Z 16010KT 29/15 A3011 RMK A01 T02930146  RH  040%=      5-min Rain = 0
KNH1 270134Z 15008KT 29/15 A3011 RMK A01 T02940146  RH  041%=      5-min Rain = 0
KNH1 270135Z 15007KT 29/15 A3011 RMK A01 T02930146  RH  041%=      5-min Rain = 0
KNH1 270136Z 16007KT 29/15 A3011 RMK A01 T02920146  RH  041%=      5-min Rain = 0
KNH1 270137Z 15008KT 29/15 A3011 RMK A01 T02920146  RH  041%=      5-min Rain = 0
KNH1 270138Z 16008KT 29/15 A3011 RMK A01 T02920146  RH  041%=      5-min Rain = 0
KNH1 270139Z 15007KT 29/15 A3011 RMK A01 T02910146  RH  041%=      5-min Rain = 0
KNH1 270140Z 15010KT 29/15 A3011 RMK A01 T02910146  RH  041%=      5-min Rain = 0
KNH1 270141Z 15007KT 29/15 A3011 RMK A01 T02910145  RH  041%=      5-min Rain = 0
KNH1 270142Z 15009KT 29/15 A3011 RMK A01 T02900145  RH  041%=      5-min Rain = 0
KNH1 270143Z 16008KT 29/15 A3012 RMK A01 T02900145  RH  041%=      5-min Rain = 0
KNH1 270144Z 15006KT 29/15 A3012 RMK A01 T02900146  RH  041%=      5-min Rain = 0
KNH1 270145Z 15006KT 29/15 A3012 RMK A01 T02890146  RH  042%=      5-min Rain = 0
KNH1 270146Z 15007KT 29/15 A3012 RMK A01 T02890146  RH  042%=      5-min Rain = 0
KNH1 270147Z 15008G13KT 29/15 A3012 RMK A01 T02880146  RH  042%=      5-min Rain = 0
KNH1 270148Z 15009KT 29/15 A3012 RMK A01 T02880146  RH  042%=      5-min Rain = 0
KNH1 270149Z 15007KT 29/15 A3012 RMK A01 T02880146  RH  042%=      5-min Rain = 0
KNH1 270150Z 15007KT 29/15 A3012 RMK A01 T02880147  RH  042%=      5-min Rain = 0
KNH1 270151Z 15009KT 29/15 A3012 RMK A01 T02880148  RH  042%=      5-min Rain = 0
KNH1 270152Z 15009KT 29/15 A3012 RMK A01 T02870148  RH  043%=      5-min Rain = 0
KNH1 270153Z 15007KT 29/15 A3012 RMK A01 T02870149  RH  043%=      5-min Rain = 0
KNH1 270154Z 14009KT 29/15 A3012 RMK A01 T02870149  RH  043%=      5-min Rain = 0
KNH1 270155Z 14007KT 29/15 A3012 RMK A01 T02860150  RH  043%=      5-min Rain = 0
KNH1 270156Z 14008KT 29/15 A3012 RMK A01 T02860150  RH  043%=      5-min Rain = 0
KNH1 270157Z 14008KT 29/15 A3012 RMK A01 T02850149  RH  044%=      5-min Rain = 0
KNH1 270158Z 14008KT 29/15 A3012 RMK A01 T02850150  RH  044%=      5-min Rain = 0
KNH1 270159Z 14009KT 28/15 A3012 RMK A01 T02840150  RH  044%=      5-min Rain = 0
KNH1 270200Z 14009KT 28/15 A3012 RMK A01 T02840150  RH  044%=      5-min Rain = 0
KNH1 270201Z 14009KT 28/15 A3012 RMK A01 T02830149  RH  044%=      5-min Rain = 0
KNH1 270202Z 14008KT 28/15 A3013 RMK A01 T02830149  RH  044%=      5-min Rain = 0
KNH1 270203Z 15009KT 28/15 A3013 RMK A01 T02820149  RH  044%=      5-min Rain = 0
KNH1 270204Z 15009KT 28/15 A3013 RMK A01 T02820149  RH  044%=      5-min Rain = 0
KNH1 270205Z 14007KT 28/15 A3013 RMK A01 T02810149  RH  044%=      5-min Rain = 0
KNH1 270206Z 14008KT 28/15 A3013 RMK A01 T02810149  RH  044%=      5-min Rain = 0
KNH1 270207Z 14008KT 28/15 A3013 RMK A01 T02800149  RH  045%=      5-min Rain = 0
KNH1 270208Z 14010KT 28/15 A3013 RMK A01 T02800149  RH  045%=      5-min Rain = 0
KNH1 270209Z 14010KT 28/15 A3013 RMK A01 T02800149  RH  045%=      5-min Rain = 0
KNH1 270210Z 14010KT 28/15 A3013 RMK A01 T02790149  RH  045%=      5-min Rain = 0
KNH1 270211Z 14008KT 28/15 A3013 RMK A01 T02800149  RH  045%=      5-min Rain = 0
KNH1 270212Z 14008KT 28/15 A3013 RMK A01 T02790149  RH  045%=      5-min Rain = 0
KNH1 270213Z 14007KT 28/15 A3013 RMK A01 T02780149  RH  045%=      5-min Rain = 0
KNH1 270214Z 14007KT 28/15 A3013 RMK A01 T02780149  RH  045%=      5-min Rain = 0
KNH1 270215Z 14008KT 28/15 A3013 RMK A01 T02770149  RH  045%=      5-min Rain = 0
KNH1 270216Z 14008KT 28/15 A3013 RMK A01 T02760149  RH  046%=      5-min Rain = 0
KNH1 270217Z 14007KT 28/15 A3013 RMK A01 T02760149  RH  046%=      5-min Rain = 0
KNH1 270218Z 13007KT 28/15 A3013 RMK A01 T02750149  RH  046%=      5-min Rain = 0
KNH1 270219Z 14008KT 28/15 A3013 RMK A01 T02750149  RH  046%=      5-min Rain = 0
KNH1 270220Z 14007KT 28/15 A3013 RMK A01 T02750149  RH  046%=      5-min Rain = 0
KNH1 270221Z 14006KT 27/15 A3013 RMK A01 T02740149  RH  046%=      5-min Rain = 0
KNH1 270222Z 14007KT 27/15 A3013 RMK A01 T02740149  RH  047%=      5-min Rain = 0
KNH1 270223Z 14007KT 27/15 A3013 RMK A01 T02730150  RH  047%=      5-min Rain = 0
KNH1 270224Z 14007KT 27/15 A3013 RMK A01 T02730150  RH  047%=      5-min Rain = 0
KNH1 270225Z 14007KT 27/15 A3013 RMK A01 T02720150  RH  047%=      5-min Rain = 0
KNH1 270226Z 13007KT 27/15 A3014 RMK A01 T02720150  RH  047%=      5-min Rain = 0
KNH1 270227Z 14007KT 27/15 A3014 RMK A01 T02720150  RH  047%=      5-min Rain = 0
KNH1 270228Z 14007KT 27/15 A3014 RMK A01 T02720151  RH  048%=      5-min Rain = 0
KNH1 270229Z 14006KT 27/15 A3014 RMK A01 T02710151  RH  048%=      5-min Rain = 0
KNH1 270230Z 14007KT 27/15 A3014 RMK A01 T02710151  RH  048%=      5-min Rain = 0
KNH1 270231Z 14007KT 27/15 A3014 RMK A01 T02710152  RH  048%=      5-min Rain = 0
KNH1 270232Z 14008KT 27/15 A3014 RMK A01 T02700152  RH  048%=      5-min Rain = 0
KNH1 270233Z 14007KT 27/15 A3014 RMK A01 T02700153  RH  049%=      5-min Rain = 0
KNH1 270234Z 14007KT 27/15 A3014 RMK A01 T02700153  RH  049%=      5-min Rain = 0
KNH1 270235Z 14007KT 27/15 A3014 RMK A01 T02700153  RH  049%=      5-min Rain = 0
KNH1 270236Z 14007KT 27/15 A3014 RMK A01 T02690153  RH  049%=      5-min Rain = 0
KNH1 270237Z 15007KT 27/15 A3014 RMK A01 T02690154  RH  049%=      5-min Rain = 0
KNH1 270238Z 14006KT 27/15 A3015 RMK A01 T02690154  RH  049%=      5-min Rain = 0
KNH1 270239Z 14006KT 27/15 A3015 RMK A01 T02690154  RH  049%=      5-min Rain = 0
KNH1 270240Z 14006KT 27/15 A3015 RMK A01 T02680154  RH  050%=      5-min Rain = 0
KNH1 270241Z 14006KT 27/15 A3015 RMK A01 T02680154  RH  050%=      5-min Rain = 0
KNH1 270242Z 14007KT 27/16 A3015 RMK A01 T02680155  RH  050%=      5-min Rain = 0
KNH1 270243Z 15006KT 27/16 A3015 RMK A01 T02680155  RH  050%=      5-min Rain = 0
KNH1 270244Z 14006KT 27/16 A3015 RMK A01 T02680156  RH  050%=      5-min Rain = 0
KNH1 270245Z 14006KT 27/16 A3015 RMK A01 T02670155  RH  050%=      5-min Rain = 0
KNH1 270246Z 14005KT 27/16 A3015 RMK A01 T02670156  RH  050%=      5-min Rain = 0
KNH1 270247Z 14007KT 27/16 A3015 RMK A01 T02670156  RH  051%=      5-min Rain = 0
KNH1 270248Z 15005KT 27/16 A3015 RMK A01 T02670156  RH  051%=      5-min Rain = 0
KNH1 270249Z 15006KT 27/16 A3015 RMK A01 T02670156  RH  051%=      5-min Rain = 0
KNH1 270250Z 15005KT 27/16 A3015 RMK A01 T02670157  RH  051%=      5-min Rain = 0
KNH1 270251Z 15005KT 27/16 A3015 RMK A01 T02660157  RH  051%=      5-min Rain = 0
KNH1 270252Z 15006KT 27/16 A3015 RMK A01 T02660157  RH  051%=      5-min Rain = 0
KNH1 270253Z 15005KT 27/16 A3015 RMK A01 T02650157  RH  051%=      5-min Rain = 0
KNH1 270254Z 15006KT 27/16 A3015 RMK A01 T02650157  RH  051%=      5-min Rain = 0
KNH1 270255Z 15005KT 27/16 A3015 RMK A01 T02650157  RH  052%=      5-min Rain = 0
KNH1 270256Z 15005KT 27/16 A3015 RMK A01 T02650157  RH  052%=      5-min Rain = 0
KNH1 270257Z 14005KT 27/16 A3016 RMK A01 T02650157  RH  052%=      5-min Rain = 0
KNH1 270258Z 14006KT 26/16 A3016 RMK A01 T02640157  RH  052%=      5-min Rain = 0
KNH1 270259Z 14005KT 26/16 A3016 RMK A01 T02640157  RH  052%=      5-min Rain = 0
KNH1 270300Z 15005KT 26/16 A3016 RMK A01 T02640157  RH  052%=      5-min Rain = 0
KNH1 270301Z 15005KT 26/16 A3016 RMK A01 T02630157  RH  052%=      5-min Rain = 0
KNH1 270302Z 14006KT 26/16 A3016 RMK A01 T02630157  RH  052%=      5-min Rain = 0
KNH1 270303Z 14004KT 26/16 A3016 RMK A01 T02620157  RH  052%=      5-min Rain = 0
KNH1 270304Z 14006KT 26/16 A3016 RMK A01 T02620157  RH  053%=      5-min Rain = 0
KNH1 270305Z 14005KT 26/16 A3016 RMK A01 T02620158  RH  053%=      5-min Rain = 0
KNH1 270306Z 14005KT 26/16 A3016 RMK A01 T02610157  RH  053%=      5-min Rain = 0
KNH1 270307Z 14006KT 26/16 A3016 RMK A01 T02610158  RH  053%=      5-min Rain = 0
KNH1 270308Z 14006KT 26/16 A3016 RMK A01 T02610158  RH  053%=      5-min Rain = 0
KNH1 270309Z 15005KT 26/16 A3016 RMK A01 T02600158  RH  053%=      5-min Rain = 0
KNH1 270310Z 14005KT 26/16 A3016 RMK A01 T02600157  RH  053%=      5-min Rain = 0
KNH1 270311Z 14005KT 26/16 A3016 RMK A01 T02600158  RH  053%=      5-min Rain = 0
KNH1 270312Z 13005KT 26/16 A3016 RMK A01 T02590158  RH  054%=      5-min Rain = 0
KNH1 270313Z 14005KT 26/16 A3016 RMK A01 T02580158  RH  054%=      5-min Rain = 0
KNH1 270314Z 14005KT 26/16 A3016 RMK A01 T02580157  RH  054%=      5-min Rain = 0
KNH1 270315Z 13004KT 26/16 A3017 RMK A01 T02570157  RH  054%=      5-min Rain = 0
KNH1 270316Z 14005KT 26/16 A3017 RMK A01 T02560158  RH  054%=      5-min Rain = 0
KNH1 270317Z 13005KT 26/16 A3017 RMK A01 T02560158  RH  055%=      5-min Rain = 0
KNH1 270318Z 13005KT 26/16 A3017 RMK A01 T02550158  RH  055%=      5-min Rain = 0
KNH1 270319Z 14005KT 26/16 A3017 RMK A01 T02550158  RH  055%=      5-min Rain = 0
KNH1 270320Z 14005KT 26/16 A3017 RMK A01 T02550158  RH  055%=      5-min Rain = 0
KNH1 270321Z 14005KT 26/16 A3017 RMK A01 T02550158  RH  055%=      5-min Rain = 0
KNH1 270322Z 13005KT 25/16 A3017 RMK A01 T02540158  RH  055%=      5-min Rain = 0
KNH1 270323Z 14005KT 25/16 A3017 RMK A01 T02530158  RH  055%=      5-min Rain = 0
KNH1 270324Z 13004KT 25/16 A3017 RMK A01 T02530158  RH  056%=      5-min Rain = 0
KNH1 270325Z 14005KT 25/16 A3017 RMK A01 T02530158  RH  056%=      5-min Rain = 0
KNH1 270326Z 14004KT 25/16 A3018 RMK A01 T02530159  RH  056%=      5-min Rain = 0
KNH1 270327Z 13004KT 25/16 A3018 RMK A01 T02520159  RH  056%=      5-min Rain = 0
KNH1 270328Z 13004KT 25/16 A3018 RMK A01 T02510158  RH  056%=      5-min Rain = 0
KNH1 270329Z 14004KT 25/16 A3018 RMK A01 T02520158  RH  056%=      5-min Rain = 0
KNH1 270330Z 14004KT 25/16 A3018 RMK A01 T02510158  RH  056%=      5-min Rain = 0
KNH1 270331Z 14004KT 25/16 A3018 RMK A01 T02510158  RH  056%=      5-min Rain = 0
KNH1 270332Z 14004KT 25/16 A3018 RMK A01 T02500158  RH  056%=      5-min Rain = 0
KNH1 270333Z 14004KT 25/16 A3018 RMK A01 T02500158  RH  057%=      5-min Rain = 0
KNH1 270334Z 14004KT 25/16 A3018 RMK A01 T02500158  RH  057%=      5-min Rain = 0
KNH1 270335Z 13004KT 25/16 A3018 RMK A01 T02490158  RH  057%=      5-min Rain = 0
KNH1 270336Z 14004KT 25/16 A3018 RMK A01 T02490158  RH  057%=      5-min Rain = 0
KNH1 270337Z 13003KT 25/16 A3018 RMK A01 T02480158  RH  057%=      5-min Rain = 0
KNH1 270338Z 14003KT 25/16 A3018 RMK A01 T02480157  RH  057%=      5-min Rain = 0
KNH1 270339Z 13003KT 25/16 A3018 RMK A01 T02480157  RH  057%=      5-min Rain = 0
KNH1 270340Z 13004KT 25/16 A3018 RMK A01 T02470157  RH  057%=      5-min Rain = 0
KNH1 270341Z 13004KT 25/16 A3018 RMK A01 T02470158  RH  057%=      5-min Rain = 0
KNH1 270342Z 13004KT 25/16 A3018 RMK A01 T02470158  RH  057%=      5-min Rain = 0
KNH1 270343Z 13004KT 25/16 A3018 RMK A01 T02460157  RH  058%=      5-min Rain = 0
KNH1 270344Z 13004KT 25/16 A3018 RMK A01 T02460157  RH  058%=      5-min Rain = 0
KNH1 270345Z 14004KT 25/16 A3018 RMK A01 T02460157  RH  058%=      5-min Rain = 0
KNH1 270346Z 13004KT 25/16 A3018 RMK A01 T02450157  RH  058%=      5-min Rain = 0
KNH1 270347Z 13004KT 25/16 A3018 RMK A01 T02450157  RH  058%=      5-min Rain = 0
KNH1 270348Z 12004KT 24/16 A3018 RMK A01 T02440157  RH  058%=      5-min Rain = 0
KNH1 270349Z 13003KT 24/16 A3018 RMK A01 T02440157  RH  058%=      5-min Rain = 0
KNH1 270350Z 13004KT 24/16 A3018 RMK A01 T02430157  RH  059%=      5-min Rain = 0
KNH1 270351Z 13004KT 24/16 A3018 RMK A01 T02430157  RH  059%=      5-min Rain = 0
KNH1 270352Z 13004KT 24/16 A3018 RMK A01 T02420157  RH  059%=      5-min Rain = 0
KNH1 270353Z 12004KT 24/16 A3019 RMK A01 T02420158  RH  059%=      5-min Rain = 0
KNH1 270354Z 13004KT 24/16 A3019 RMK A01 T02420157  RH  059%=      5-min Rain = 0
KNH1 270355Z 13003KT 24/16 A3019 RMK A01 T02410157  RH  059%=      5-min Rain = 0
KNH1 270356Z 12003KT 24/16 A3019 RMK A01 T02410157  RH  060%=      5-min Rain = 0
KNH1 270357Z 12003KT 24/16 A3019 RMK A01 T02410157  RH  060%=      5-min Rain = 0
KNH1 270358Z 12004KT 24/16 A3019 RMK A01 T02410158  RH  060%=      5-min Rain = 0
KNH1 270359Z 13004KT 24/16 A3019 RMK A01 T02410158  RH  060%=      5-min Rain = 0
KNH1 270400Z 12003KT 24/16 A3019 RMK A01 T02400158  RH  060%=      5-min Rain = 0
KNH1 270401Z 13003KT 24/16 A3019 RMK A01 T02400158  RH  060%=      5-min Rain = 0
KNH1 270402Z 12004KT 24/16 A3019 RMK A01 T02400159  RH  060%=      5-min Rain = 0
KNH1 270403Z 12003KT 24/16 A3019 RMK A01 T02400159  RH  060%=      5-min Rain = 0
KNH1 270404Z 13003KT 24/16 A3019 RMK A01 T02390159  RH  061%=      5-min Rain = 0
KNH1 270405Z 13004KT 24/16 A3019 RMK A01 T02390159  RH  061%=      5-min Rain = 0
KNH1 270406Z 13004KT 24/16 A3019 RMK A01 T02390159  RH  061%=      5-min Rain = 0
KNH1 270407Z 13004KT 24/16 A3019 RMK A01 T02390159  RH  061%=      5-min Rain = 0
KNH1 270408Z 12005KT 24/16 A3019 RMK A01 T02390159  RH  061%=      5-min Rain = 0
KNH1 270409Z 13005KT 24/16 A3019 RMK A01 T02380159  RH  061%=      5-min Rain = 0
KNH1 270410Z 13005KT 24/16 A3019 RMK A01 T02380160  RH  061%=      5-min Rain = 0
KNH1 270411Z 13005KT 24/16 A3019 RMK A01 T02380159  RH  061%=      5-min Rain = 0
KNH1 270412Z 13005KT 24/16 A302 RMK A01 T02380160  RH  062%=      5-min Rain = 0
KNH1 270413Z 13005KT 24/16 A302 RMK A01 T02380160  RH  062%=      5-min Rain = 0
KNH1 270414Z 13005KT 24/16 A302 RMK A01 T02380160  RH  062%=      5-min Rain = 0
KNH1 270415Z 13005KT 24/16 A302 RMK A01 T02380160  RH  062%=      5-min Rain = 0
KNH1 270416Z 13005KT 24/16 A302 RMK A01 T02380160  RH  062%=      5-min Rain = 0
KNH1 270417Z 13005KT 24/16 A302 RMK A01 T02380160  RH  062%=      5-min Rain = 0
KNH1 270418Z 13004KT 24/16 A302 RMK A01 T02380160  RH  061%=      5-min Rain = 0
KNH1 270419Z 13005KT 24/16 A302 RMK A01 T02380159  RH  061%=      5-min Rain = 0
KNH1 270420Z 13005KT 24/16 A302 RMK A01 T02380160  RH  062%=      5-min Rain = 0
KNH1 270421Z 13005KT 24/16 A302 RMK A01 T02380160  RH  062%=      5-min Rain = 0
KNH1 270422Z 13006KT 24/16 A302 RMK A01 T02370160  RH  062%=      5-min Rain = 0
KNH1 270423Z 13005KT 24/16 A302 RMK A01 T02370160  RH  062%=      5-min Rain = 0
KNH1 270424Z 13005KT 24/16 A302 RMK A01 T02370160  RH  062%=      5-min Rain = 0
KNH1 270425Z 13005KT 24/16 A302 RMK A01 T02360160  RH  062%=      5-min Rain = 0
KNH1 270426Z 13006KT 24/16 A302 RMK A01 T02360160  RH  063%=      5-min Rain = 0
KNH1 270427Z 13005KT 24/16 A302 RMK A01 T02360161  RH  063%=      5-min Rain = 0
KNH1 270428Z 13006KT 24/16 A302 RMK A01 T02360161  RH  063%=      5-min Rain = 0
KNH1 270429Z 13005KT 24/16 A302 RMK A01 T02360161  RH  063%=      5-min Rain = 0
KNH1 270430Z 13006KT 24/16 A302 RMK A01 T02360161  RH  063%=      5-min Rain = 0
KNH1 270431Z 13006KT 24/16 A302 RMK A01 T02360162  RH  063%=      5-min Rain = 0
KNH1 270432Z 14006KT 24/16 A302 RMK A01 T02370162  RH  063%=      5-min Rain = 0
KNH1 270433Z 13006KT 24/16 A302 RMK A01 T02370162  RH  063%=      5-min Rain = 0
KNH1 270434Z 14006KT 24/16 A302 RMK A01 T02380163  RH  063%=      5-min Rain = 0
KNH1 270435Z 13006KT 24/16 A302 RMK A01 T02380162  RH  063%=      5-min Rain = 0
KNH1 270436Z 14006KT 24/16 A302 RMK A01 T02380163  RH  063%=      5-min Rain = 0
KNH1 270437Z 14006KT 24/16 A302 RMK A01 T02380163  RH  063%=      5-min Rain = 0
KNH1 270438Z 13005KT 24/16 A302 RMK A01 T02380162  RH  063%=      5-min Rain = 0
KNH1 270439Z 14005KT 24/16 A302 RMK A01 T02380163  RH  063%=      5-min Rain = 0
KNH1 270440Z 13005KT 24/16 A302 RMK A01 T02380162  RH  063%=      5-min Rain = 0
KNH1 270441Z 14006KT 24/16 A302 RMK A01 T02370162  RH  063%=      5-min Rain = 0
KNH1 270442Z 14005KT 24/16 A302 RMK A01 T02370163  RH  063%=      5-min Rain = 0
KNH1 270443Z 14004KT 24/16 A302 RMK A01 T02360163  RH  063%=      5-min Rain = 0
KNH1 270444Z 13004KT 24/16 A302 RMK A01 T02360163  RH  063%=      5-min Rain = 0
KNH1 270445Z 14006KT 24/16 A302 RMK A01 T02360163  RH  064%=      5-min Rain = 0
KNH1 270446Z 14004KT 24/16 A302 RMK A01 T02360163  RH  064%=      5-min Rain = 0
KNH1 270447Z 14005KT 24/16 A302 RMK A01 T02350163  RH  064%=      5-min Rain = 0
KNH1 270448Z 14005KT 24/16 A302 RMK A01 T02350163  RH  064%=      5-min Rain = 0
KNH1 270449Z 13005KT 24/16 A302 RMK A01 T02350164  RH  064%=      5-min Rain = 0
KNH1 270450Z 14004KT 23/16 A302 RMK A01 T02340164  RH  064%=      5-min Rain = 0
KNH1 270451Z 14005KT 23/16 A302 RMK A01 T02340164  RH  065%=      5-min Rain = 0
KNH1 270452Z 13005KT 23/16 A302 RMK A01 T02340164  RH  065%=      5-min Rain = 0
KNH1 270453Z 13005KT 23/16 A302 RMK A01 T02340164  RH  065%=      5-min Rain = 0
KNH1 270454Z 14005KT 23/16 A302 RMK A01 T02330164  RH  065%=      5-min Rain = 0
KNH1 270455Z 13005KT 23/16 A302 RMK A01 T02330164  RH  065%=      5-min Rain = 0
KNH1 270456Z 13005KT 23/17 A302 RMK A01 T02330165  RH  065%=      5-min Rain = 0
KNH1 270457Z 14005KT 23/16 A302 RMK A01 T02320164  RH  066%=      5-min Rain = 0
KNH1 270458Z 13005KT 23/17 A302 RMK A01 T02320165  RH  066%=      5-min Rain = 0
KNH1 270459Z 12005KT 23/17 A302 RMK A01 T02320165  RH  066%=      5-min Rain = 0

Page generated in 0.1438 seconds.